2016 Cux-Wetter.de -Die Nutzung der Wetterdaten nur mit ausdrcklicher Genehmigung
Wetterdaten: Donnerstag, 22.11.2018
Datum Zeit Temp. A. Feuchte A. Luftdruck Regen Wind Richtung Richtung Sonnenschein Solar Taupunkt Windchill Windben
22.11.2018 00:00 2,1 C 88 % 1022,9 hPa 0,0 l/m 8,1 km/h (2 Bft) N-NO 24 0 min 0 W/m 0,3 C 0,5 C 19,3 km/h (3 Bft)
22.11.2018 00:03 2,1 C 88 % 1022,8 hPa 0,0 l/m 6,5 km/h (2 Bft) O 93 0 min 0 W/m 0,3 C 2,0 C 17,7 km/h (3 Bft)
22.11.2018 00:06 2,1 C 87 % 1022,8 hPa 0,0 l/m 7,8 km/h (2 Bft) O 91 0 min 0 W/m 0,2 C 0,7 C 16,1 km/h (3 Bft)
22.11.2018 00:09 2,1 C 87 % 1022,8 hPa 0,0 l/m 8,2 km/h (2 Bft) O 84 0 min 0 W/m 0,2 C 0,4 C 20,9 km/h (4 Bft)
22.11.2018 00:12 2,1 C 87 % 1022,8 hPa 0,0 l/m 7,4 km/h (2 Bft) O-NO 74 0 min 0 W/m 0,2 C 1,1 C 19,3 km/h (3 Bft)
22.11.2018 00:15 2,1 C 87 % 1022,8 hPa 0,0 l/m 8,0 km/h (2 Bft) O-SO 105 0 min 0 W/m 0,2 C 0,6 C 19,3 km/h (3 Bft)
22.11.2018 00:18 2,1 C 88 % 1022,8 hPa 0,0 l/m 6,7 km/h (2 Bft) NO 55 0 min 0 W/m 0,3 C 1,8 C 12,9 km/h (3 Bft)
22.11.2018 00:21 2,1 C 88 % 1022,8 hPa 0,0 l/m 8,7 km/h (2 Bft) O-NO 60 0 min 0 W/m 0,3 C -0,1 C 20,9 km/h (4 Bft)
22.11.2018 00:24 2,1 C 88 % 1022,8 hPa 0,0 l/m 5,3 km/h (1 Bft) O-SO 116 0 min 0 W/m 0,3 C 2,1 C 9,7 km/h (2 Bft)
22.11.2018 00:27 2,1 C 88 % 1022,8 hPa 0,0 l/m 6,7 km/h (2 Bft) O-SO 122 0 min 0 W/m 0,3 C 1,8 C 14,5 km/h (3 Bft)
22.11.2018 00:30 2,1 C 88 % 1022,7 hPa 0,0 l/m 7,0 km/h (2 Bft) NO 45 0 min 0 W/m 0,3 C 1,5 C 25,7 km/h (4 Bft)
22.11.2018 00:33 2,1 C 88 % 1022,8 hPa 0,0 l/m 6,4 km/h (2 Bft) NO 39 0 min 0 W/m 0,3 C 2,1 C 14,5 km/h (3 Bft)
22.11.2018 00:36 2,1 C 88 % 1022,8 hPa 0,0 l/m 8,4 km/h (2 Bft) O-SO 109 0 min 0 W/m 0,3 C 0,2 C 17,7 km/h (3 Bft)
22.11.2018 00:39 2,1 C 88 % 1022,8 hPa 0,0 l/m 7,4 km/h (2 Bft) O-NO 61 0 min 0 W/m 0,3 C 1,1 C 16,1 km/h (3 Bft)
22.11.2018 00:42 2,1 C 88 % 1022,8 hPa 0,0 l/m 6,9 km/h (2 Bft) SO 136 0 min 0 W/m 0,3 C 1,6 C 14,5 km/h (3 Bft)
22.11.2018 00:45 2,1 C 88 % 1022,8 hPa 0,0 l/m 8,8 km/h (2 Bft) O-NO 58 0 min 0 W/m 0,3 C -0,2 C 17,7 km/h (3 Bft)
22.11.2018 00:48 2,1 C 88 % 1022,8 hPa 0,0 l/m 8,6 km/h (2 Bft) S-SO 150 0 min 0 W/m 0,3 C 0,0 C 22,5 km/h (4 Bft)
22.11.2018 00:51 2,1 C 88 % 1022,8 hPa 0,0 l/m 9,3 km/h (2 Bft) O 99 0 min 0 W/m 0,3 C -0,6 C 22,5 km/h (4 Bft)
22.11.2018 00:54 2,1 C 88 % 1022,8 hPa 0,0 l/m 8,7 km/h (2 Bft) O 98 0 min 0 W/m 0,3 C -0,1 C 16,1 km/h (3 Bft)
22.11.2018 00:57 2,1 C 88 % 1022,7 hPa 0,0 l/m 5,1 km/h (1 Bft) O 96 0 min 0 W/m 0,3 C 2,1 C 14,5 km/h (3 Bft)
22.11.2018 01:00 2,1 C 88 % 1022,8 hPa 0,0 l/m 6,3 km/h (2 Bft) O-NO 64 0 min 0 W/m 0,3 C 2,1 C 19,3 km/h (3 Bft)
22.11.2018 01:03 2,1 C 88 % 1022,7 hPa 0,0 l/m 7,5 km/h (2 Bft) O-SO 115 0 min 0 W/m 0,3 C 1,0 C 24,1 km/h (4 Bft)
22.11.2018 01:06 2,1 C 88 % 1022,8 hPa 0,0 l/m 6,6 km/h (2 Bft) O-NO 78 0 min 0 W/m 0,3 C 1,9 C 14,5 km/h (3 Bft)
22.11.2018 01:09 2,1 C 88 % 1022,7 hPa 0,0 l/m 7,7 km/h (2 Bft) O 98 0 min 0 W/m 0,3 C 0,8 C 19,3 km/h (3 Bft)
22.11.2018 01:12 2,1 C 88 % 1022,7 hPa 0,0 l/m 8,0 km/h (2 Bft) NO 40 0 min 0 W/m 0,3 C 0,6 C 24,1 km/h (4 Bft)
22.11.2018 01:15 2,1 C 88 % 1022,8 hPa 0,0 l/m 7,2 km/h (2 Bft) NO 56 0 min 0 W/m 0,3 C 1,3 C 19,3 km/h (3 Bft)
22.11.2018 01:18 2,1 C 88 % 1022,8 hPa 0,0 l/m 9,1 km/h (2 Bft) O 86 0 min 0 W/m 0,3 C -0,4 C 17,7 km/h (3 Bft)
22.11.2018 01:21 2,1 C 88 % 1022,7 hPa 0,0 l/m 9,3 km/h (2 Bft) O-NO 69 0 min 0 W/m 0,3 C -0,6 C 17,7 km/h (3 Bft)
22.11.2018 01:24 2,0 C 88 % 1022,8 hPa 0,0 l/m 7,8 km/h (2 Bft) NO 49 0 min 0 W/m 0,2 C 0,6 C 17,7 km/h (3 Bft)
22.11.2018 01:27 2,0 C 88 % 1022,7 hPa 0,0 l/m 6,2 km/h (2 Bft) O-NO 62 0 min 0 W/m 0,2 C 2,0 C 19,3 km/h (3 Bft)
22.11.2018 01:30 2,0 C 88 % 1022,7 hPa 0,0 l/m 9,8 km/h (2 Bft) O-SO 113 0 min 0 W/m 0,2 C -1,1 C 20,9 km/h (4 Bft)
22.11.2018 01:33 2,0 C 88 % 1022,8 hPa 0,0 l/m 8,0 km/h (2 Bft) O-NO 68 0 min 0 W/m 0,2 C 0,5 C 20,9 km/h (4 Bft)
22.11.2018 01:36 2,0 C 88 % 1022,8 hPa 0,0 l/m 7,8 km/h (2 Bft) O-NO 63 0 min 0 W/m 0,2 C 0,6 C 20,9 km/h (4 Bft)
22.11.2018 01:39 2,0 C 88 % 1022,9 hPa 0,0 l/m 8,0 km/h (2 Bft) O-SO 111 0 min 0 W/m 0,2 C 0,5 C 22,5 km/h (4 Bft)
22.11.2018 01:42 2,0 C 88 % 1022,9 hPa 0,0 l/m 5,5 km/h (2 Bft) SO 139 0 min 0 W/m 0,2 C 2,0 C 14,5 km/h (3 Bft)
22.11.2018 01:45 2,0 C 88 % 1022,8 hPa 0,0 l/m 9,2 km/h (2 Bft) O 80 0 min 0 W/m 0,2 C -0,6 C 17,7 km/h (3 Bft)
22.11.2018 01:48 2,1 C 88 % 1022,9 hPa 0,0 l/m 6,4 km/h (2 Bft) SO 144 0 min 0 W/m 0,3 C 2,1 C 12,9 km/h (3 Bft)
22.11.2018 01:51 2,1 C 88 % 1022,8 hPa 0,0 l/m 7,9 km/h (2 Bft) O 89 0 min 0 W/m 0,3 C 0,7 C 17,7 km/h (3 Bft)
22.11.2018 01:54 2,0 C 87 % 1022,8 hPa 0,0 l/m 4,0 km/h (1 Bft) NO 56 0 min 0 W/m 0,1 C 2,0 C 6,4 km/h (2 Bft)
22.11.2018 01:57 2,0 C 87 % 1022,8 hPa 0,0 l/m 7,3 km/h (2 Bft) O-NO 65 0 min 0 W/m 0,1 C 1,1 C 16,1 km/h (3 Bft)
22.11.2018 02:00 2,0 C 87 % 1022,8 hPa 0,0 l/m 6,0 km/h (2 Bft) O-NO 74 0 min 0 W/m 0,1 C 2,0 C 14,5 km/h (3 Bft)
22.11.2018 02:03 2,0 C 87 % 1022,8 hPa 0,0 l/m 5,5 km/h (2 Bft) N-NO 19 0 min 0 W/m 0,1 C 2,0 C 17,7 km/h (3 Bft)
22.11.2018 02:06 2,0 C 87 % 1022,8 hPa 0,0 l/m 6,7 km/h (2 Bft) O-SO 112 0 min 0 W/m 0,1 C 1,7 C 16,1 km/h (3 Bft)
22.11.2018 02:09 2,0 C 87 % 1022,8 hPa 0,0 l/m 3,0 km/h (1 Bft) O-SO 122 0 min 0 W/m 0,1 C 2,0 C 6,4 km/h (2 Bft)
22.11.2018 02:12 2,0 C 87 % 1022,8 hPa 0,0 l/m 7,1 km/h (2 Bft) NO 53 0 min 0 W/m 0,1 C 1,3 C 19,3 km/h (3 Bft)
22.11.2018 02:15 2,0 C 87 % 1022,8 hPa 0,0 l/m 5,9 km/h (2 Bft) O-SO 103 0 min 0 W/m 0,1 C 2,0 C 14,5 km/h (3 Bft)
22.11.2018 02:18 2,1 C 87 % 1022,7 hPa 0,0 l/m 5,1 km/h (1 Bft) O-SO 102 0 min 0 W/m 0,2 C 2,1 C 9,7 km/h (2 Bft)
22.11.2018 02:21 2,1 C 87 % 1022,8 hPa 0,0 l/m 5,3 km/h (1 Bft) NO 41 0 min 0 W/m 0,2 C 2,1 C 14,5 km/h (3 Bft)
22.11.2018 02:24 2,1 C 87 % 1022,8 hPa 0,0 l/m 6,0 km/h (2 Bft) O-NO 63 0 min 0 W/m 0,2 C 2,1 C 12,9 km/h (3 Bft)
22.11.2018 02:27 2,1 C 87 % 1022,8 hPa 0,0 l/m 6,2 km/h (2 Bft) NO 55 0 min 0 W/m 0,2 C 2,1 C 16,1 km/h (3 Bft)
22.11.2018 02:30 2,1 C 87 % 1022,8 hPa 0,0 l/m 6,7 km/h (2 Bft) O 80 0 min 0 W/m 0,2 C 1,8 C 16,1 km/h (3 Bft)
22.11.2018 02:33 2,1 C 87 % 1022,8 hPa 0,0 l/m 5,2 km/h (1 Bft) NO 43 0 min 0 W/m 0,2 C 2,1 C 9,7 km/h (2 Bft)
22.11.2018 02:36 2,1 C 87 % 1022,8 hPa 0,0 l/m 6,9 km/h (2 Bft) NO 51 0 min 0 W/m 0,2 C 1,6 C 17,7 km/h (3 Bft)
22.11.2018 02:39 2,1 C 87 % 1022,7 hPa 0,0 l/m 6,9 km/h (2 Bft) N-NO 26 0 min 0 W/m 0,2 C 1,6 C 16,1 km/h (3 Bft)
22.11.2018 02:42 2,0 C 87 % 1022,7 hPa 0,0 l/m 8,3 km/h (2 Bft) O-NO 72 0 min 0 W/m 0,1 C 0,2 C 17,7 km/h (3 Bft)
22.11.2018 02:45 2,1 C 87 % 1022,7 hPa 0,0 l/m 7,0 km/h (2 Bft) O-NO 77 0 min 0 W/m 0,2 C 1,5 C 16,1 km/h (3 Bft)
22.11.2018 02:48 2,1 C 87 % 1022,7 hPa 0,0 l/m 4,6 km/h (1 Bft) O 99 0 min 0 W/m 0,2 C 2,1 C 12,9 km/h (3 Bft)
22.11.2018 02:51 2,1 C 87 % 1022,7 hPa 0,0 l/m 8,5 km/h (2 Bft) S-SO 149 0 min 0 W/m 0,2 C 0,1 C 19,3 km/h (3 Bft)
22.11.2018 02:54 2,0 C 88 % 1022,6 hPa 0,0 l/m 8,5 km/h (2 Bft) N 5 0 min 0 W/m 0,2 C 0,0 C 16,1 km/h (3 Bft)
22.11.2018 02:57 2,1 C 88 % 1022,7 hPa 0,0 l/m 5,9 km/h (2 Bft) W-SW 254 0 min 0 W/m 0,3 C 2,1 C 17,7 km/h (3 Bft)
22.11.2018 03:00 2,1 C 88 % 1022,7 hPa 0,0 l/m 6,5 km/h (2 Bft) O-SO 123 0 min 0 W/m 0,3 C 2,0 C 16,1 km/h (3 Bft)
22.11.2018 03:03 2,0 C 88 % 1022,6 hPa 0,0 l/m 7,7 km/h (2 Bft) W-NW 303 0 min 0 W/m 0,2 C 0,7 C 14,5 km/h (3 Bft)
22.11.2018 03:06 2,0 C 88 % 1022,6 hPa 0,0 l/m 4,9 km/h (1 Bft) S-SO 166 0 min 0 W/m 0,2 C 2,0 C 17,7 km/h (3 Bft)
22.11.2018 03:09 2,0 C 88 % 1022,6 hPa 0,0 l/m 7,4 km/h (2 Bft) S-SO 165 0 min 0 W/m 0,2 C 1,0 C 17,7 km/h (3 Bft)
22.11.2018 03:12 2,0 C 88 % 1022,6 hPa 0,0 l/m 6,4 km/h (2 Bft) N-NW 342 0 min 0 W/m 0,2 C 2,0 C 16,1 km/h (3 Bft)
22.11.2018 03:15 2,0 C 88 % 1022,6 hPa 0,0 l/m 7,4 km/h (2 Bft) NO 50 0 min 0 W/m 0,2 C 1,0 C 14,5 km/h (3 Bft)
22.11.2018 03:18 2,0 C 88 % 1022,6 hPa 0,0 l/m 8,5 km/h (2 Bft) N-NW 337 0 min 0 W/m 0,2 C 0,0 C 22,5 km/h (4 Bft)
22.11.2018 03:21 2,0 C 88 % 1022,6 hPa 0,0 l/m 7,1 km/h (2 Bft) NO 52 0 min 0 W/m 0,2 C 1,3 C 16,1 km/h (3 Bft)
22.11.2018 03:24 2,0 C 88 % 1022,6 hPa 0,0 l/m 5,2 km/h (1 Bft) N-NO 21 0 min 0 W/m 0,2 C 2,0 C 11,3 km/h (2 Bft)
22.11.2018 03:27 2,0 C 88 % 1022,6 hPa 0,0 l/m 4,3 km/h (1 Bft) O 83 0 min 0 W/m 0,2 C 2,0 C 8,0 km/h (2 Bft)
22.11.2018 03:30 2,0 C 88 % 1022,5 hPa 0,0 l/m 5,1 km/h (1 Bft) O 92 0 min 0 W/m 0,2 C 2,0 C 12,9 km/h (3 Bft)
22.11.2018 03:33 2,0 C 88 % 1022,5 hPa 0,0 l/m 5,3 km/h (1 Bft) O 84 0 min 0 W/m 0,2 C 2,0 C 12,9 km/h (3 Bft)
22.11.2018 03:36 2,0 C 88 % 1022,5 hPa 0,0 l/m 4,0 km/h (1 Bft) O-SO 121 0 min 0 W/m 0,2 C 2,0 C 8,0 km/h (2 Bft)
22.11.2018 03:39 2,0 C 88 % 1022,5 hPa 0,0 l/m 4,2 km/h (1 Bft) O 90 0 min 0 W/m 0,2 C 2,0 C 9,7 km/h (2 Bft)
22.11.2018 03:42 2,0 C 88 % 1022,6 hPa 0,0 l/m 7,3 km/h (2 Bft) O-SO 115 0 min 0 W/m 0,2 C 1,1 C 19,3 km/h (3 Bft)
22.11.2018 03:45 2,0 C 88 % 1022,5 hPa 0,0 l/m 8,3 km/h (2 Bft) O 90 0 min 0 W/m 0,2 C 0,2 C 16,1 km/h (3 Bft)
22.11.2018 03:48 1,9 C 88 % 1022,5 hPa 0,0 l/m 8,4 km/h (2 Bft) N-NO 13 0 min 0 W/m 0,1 C -0,0 C 16,1 km/h (3 Bft)
22.11.2018 03:51 1,9 C 88 % 1022,6 hPa 0,0 l/m 5,6 km/h (2 Bft) NO 43 0 min 0 W/m 0,1 C 1,9 C 11,3 km/h (2 Bft)
22.11.2018 03:54 1,9 C 88 % 1022,5 hPa 0,0 l/m 7,6 km/h (2 Bft) O-NO 73 0 min 0 W/m 0,1 C 0,7 C 17,7 km/h (3 Bft)
22.11.2018 03:57 1,9 C 88 % 1022,5 hPa 0,0 l/m 6,2 km/h (2 Bft) O-SO 105 0 min 0 W/m 0,1 C 1,9 C 16,1 km/h (3 Bft)
22.11.2018 04:00 1,9 C 88 % 1022,5 hPa 0,0 l/m 6,7 km/h (2 Bft) O-SO 119 0 min 0 W/m 0,1 C 1,6 C 19,3 km/h (3 Bft)
22.11.2018 04:03 1,9 C 88 % 1022,5 hPa 0,0 l/m 8,4 km/h (2 Bft) SO 129 0 min 0 W/m 0,1 C -0,0 C 22,5 km/h (4 Bft)
22.11.2018 04:06 1,9 C 88 % 1022,6 hPa 0,0 l/m 6,7 km/h (2 Bft) O-NO 72 0 min 0 W/m 0,1 C 1,6 C 14,5 km/h (3 Bft)
22.11.2018 04:09 1,9 C 88 % 1022,5 hPa 0,0 l/m 6,1 km/h (2 Bft) NO 34 0 min 0 W/m 0,1 C 1,9 C 19,3 km/h (3 Bft)
22.11.2018 04:12 1,9 C 88 % 1022,5 hPa 0,0 l/m 4,8 km/h (1 Bft) NO 54 0 min 0 W/m 0,1 C 1,9 C 11,3 km/h (2 Bft)
22.11.2018 04:15 1,9 C 88 % 1022,5 hPa 0,0 l/m 7,5 km/h (2 Bft) O-NO 70 0 min 0 W/m 0,1 C 0,8 C 19,3 km/h (3 Bft)
22.11.2018 04:18 1,9 C 88 % 1022,5 hPa 0,0 l/m 4,9 km/h (1 Bft) N-NO 24 0 min 0 W/m 0,1 C 1,9 C 11,3 km/h (2 Bft)
22.11.2018 04:21 1,9 C 88 % 1022,6 hPa 0,0 l/m 5,9 km/h (2 Bft) O 94 0 min 0 W/m 0,1 C 1,9 C 14,5 km/h (3 Bft)
22.11.2018 04:24 1,9 C 88 % 1022,6 hPa 0,0 l/m 5,4 km/h (2 Bft) NO 43 0 min 0 W/m 0,1 C 1,9 C 11,3 km/h (2 Bft)
22.11.2018 04:27 2,0 C 88 % 1022,6 hPa 0,0 l/m 5,8 km/h (2 Bft) O 81 0 min 0 W/m 0,2 C 2,0 C 14,5 km/h (3 Bft)
22.11.2018 04:30 2,0 C 88 % 1022,6 hPa 0,0 l/m 7,4 km/h (2 Bft) NO 48 0 min 0 W/m 0,2 C 1,0 C 17,7 km/h (3 Bft)
22.11.2018 04:33 2,0 C 88 % 1022,6 hPa 0,0 l/m 7,3 km/h (2 Bft) O-NO 78 0 min 0 W/m 0,2 C 1,1 C 16,1 km/h (3 Bft)
22.11.2018 04:36 2,0 C 88 % 1022,6 hPa 0,0 l/m 3,6 km/h (1 Bft) O 101 0 min 0 W/m 0,2 C 2,0 C 16,1 km/h (3 Bft)
22.11.2018 04:39 2,0 C 88 % 1022,6 hPa 0,0 l/m 5,1 km/h (1 Bft) O 84 0 min 0 W/m 0,2 C 2,0 C 19,3 km/h (3 Bft)
22.11.2018 04:42 2,0 C 88 % 1022,6 hPa 0,0 l/m 7,0 km/h (2 Bft) O-NO 68 0 min 0 W/m 0,2 C 1,4 C 16,1 km/h (3 Bft)
22.11.2018 04:45 2,0 C 88 % 1022,5 hPa 0,0 l/m 7,1 km/h (2 Bft) O-NO 71 0 min 0 W/m 0,2 C 1,3 C 20,9 km/h (4 Bft)
22.11.2018 04:48 2,0 C 88 % 1022,6 hPa 0,0 l/m 6,0 km/h (2 Bft) O-SO 115 0 min 0 W/m 0,2 C 2,0 C 12,9 km/h (3 Bft)
22.11.2018 04:51 2,0 C 88 % 1022,5 hPa 0,0 l/m 6,4 km/h (2 Bft) N-NW 331 0 min 0 W/m 0,2 C 2,0 C 12,9 km/h (3 Bft)
22.11.2018 04:54 2,0 C 88 % 1022,6 hPa 0,0 l/m 7,4 km/h (2 Bft) O 98 0 min 0 W/m 0,2 C 1,0 C 19,3 km/h (3 Bft)
22.11.2018 04:57 2,0 C 89 % 1022,5 hPa 0,0 l/m 6,8 km/h (2 Bft) O-NO 65 0 min 0 W/m 0,4 C 1,6 C 16,1 km/h (3 Bft)
22.11.2018 05:00 1,9 C 89 % 1022,4 hPa 0,0 l/m 7,3 km/h (2 Bft) N-NO 22 0 min 0 W/m 0,3 C 1,0 C 20,9 km/h (4 Bft)
22.11.2018 05:03 1,9 C 89 % 1022,5 hPa 0,0 l/m 6,8 km/h (2 Bft) O-SO 107 0 min 0 W/m 0,3 C 1,5 C 17,7 km/h (3 Bft)
22.11.2018 05:06 1,9 C 89 % 1022,5 hPa 0,0 l/m 5,4 km/h (2 Bft) NO 43 0 min 0 W/m 0,3 C 1,9 C 14,5 km/h (3 Bft)
22.11.2018 05:09 1,9 C 89 % 1022,4 hPa 0,0 l/m 5,2 km/h (1 Bft) O 86 0 min 0 W/m 0,3 C 1,9 C 12,9 km/h (3 Bft)
22.11.2018 05:12 1,9 C 89 % 1022,5 hPa 0,0 l/m 6,8 km/h (2 Bft) NO 49 0 min 0 W/m 0,3 C 1,5 C 16,1 km/h (3 Bft)
22.11.2018 05:15 1,9 C 89 % 1022,5 hPa 0,0 l/m 4,4 km/h (1 Bft) O-SO 117 0 min 0 W/m 0,3 C 1,9 C 12,9 km/h (3 Bft)
22.11.2018 05:18 1,9 C 89 % 1022,4 hPa 0,0 l/m 3,9 km/h (1 Bft) O 92 0 min 0 W/m 0,3 C 1,9 C 6,4 km/h (2 Bft)
22.11.2018 05:21 1,9 C 89 % 1022,4 hPa 0,0 l/m 5,3 km/h (1 Bft) N-NO 32 0 min 0 W/m 0,3 C 1,9 C 17,7 km/h (3 Bft)
22.11.2018 05:24 1,9 C 89 % 1022,4 hPa 0,0 l/m 6,0 km/h (2 Bft) NO 48 0 min 0 W/m 0,3 C 1,9 C 17,7 km/h (3 Bft)
22.11.2018 05:27 1,8 C 90 % 1022,4 hPa 0,0 l/m 7,4 km/h (2 Bft) NO 34 0 min 0 W/m 0,3 C 0,8 C 14,5 km/h (3 Bft)
22.11.2018 05:30 1,8 C 90 % 1022,4 hPa 0,0 l/m 5,4 km/h (2 Bft) O-SO 103 0 min 0 W/m 0,3 C 1,8 C 14,5 km/h (3 Bft)
22.11.2018 05:33 1,8 C 90 % 1022,4 hPa 0,0 l/m 5,4 km/h (2 Bft) N 11 0 min 0 W/m 0,3 C 1,8 C 16,1 km/h (3 Bft)
22.11.2018 05:36 1,8 C 90 % 1022,4 hPa 0,0 l/m 7,1 km/h (2 Bft) NO 55 0 min 0 W/m 0,3 C 1,1 C 16,1 km/h (3 Bft)
22.11.2018 05:39 1,8 C 90 % 1022,4 hPa 0,0 l/m 6,4 km/h (2 Bft) N-NW 343 0 min 0 W/m 0,3 C 1,8 C 16,1 km/h (3 Bft)
22.11.2018 05:42 1,8 C 90 % 1022,4 hPa 0,0 l/m 4,9 km/h (1 Bft) O 80 0 min 0 W/m 0,3 C 1,8 C 12,9 km/h (3 Bft)
22.11.2018 05:45 1,8 C 90 % 1022,4 hPa 0,0 l/m 6,3 km/h (2 Bft) NO 49 0 min 0 W/m 0,3 C 1,8 C 12,9 km/h (3 Bft)
22.11.2018 05:48 1,8 C 90 % 1022,4 hPa 0,0 l/m 5,0 km/h (1 Bft) NO 41 0 min 0 W/m 0,3 C 1,8 C 11,3 km/h (2 Bft)
22.11.2018 05:51 1,8 C 90 % 1022,4 hPa 0,0 l/m 8,9 km/h (2 Bft) O-NO 78 0 min 0 W/m 0,3 C -0,6 C 22,5 km/h (4 Bft)
22.11.2018 05:54 1,8 C 90 % 1022,4 hPa 0,0 l/m 7,9 km/h (2 Bft) O-NO 60 0 min 0 W/m 0,3 C 0,3 C 19,3 km/h (3 Bft)
22.11.2018 05:57 1,8 C 90 % 1022,4 hPa 0,0 l/m 5,0 km/h (1 Bft) O-NO 69 0 min 0 W/m 0,3 C 1,8 C 11,3 km/h (2 Bft)
22.11.2018 06:00 1,8 C 90 % 1022,4 hPa 0,0 l/m 7,1 km/h (2 Bft) NO 55 0 min 0 W/m 0,3 C 1,1 C 16,1 km/h (3 Bft)
22.11.2018 06:03 1,8 C 90 % 1022,4 hPa 0,0 l/m 4,5 km/h (1 Bft) NO 36 0 min 0 W/m 0,3 C 1,8 C 9,7 km/h (2 Bft)
22.11.2018 06:06 1,8 C 90 % 1022,4 hPa 0,0 l/m 6,7 km/h (2 Bft) N-NO 23 0 min 0 W/m 0,3 C 1,5 C 14,5 km/h (3 Bft)
22.11.2018 06:09 1,8 C 90 % 1022,4 hPa 0,0 l/m 5,8 km/h (2 Bft) O 93 0 min 0 W/m 0,3 C 1,8 C 14,5 km/h (3 Bft)
22.11.2018 06:12 1,8 C 90 % 1022,4 hPa 0,0 l/m 6,2 km/h (2 Bft) O 89 0 min 0 W/m 0,3 C 1,8 C 19,3 km/h (3 Bft)
22.11.2018 06:15 1,8 C 90 % 1022,4 hPa 0,0 l/m 4,3 km/h (1 Bft) O 90 0 min 0 W/m 0,3 C 1,8 C 9,7 km/h (2 Bft)
22.11.2018 06:18 1,8 C 90 % 1022,4 hPa 0,0 l/m 5,2 km/h (1 Bft) O 89 0 min 0 W/m 0,3 C 1,8 C 14,5 km/h (3 Bft)
22.11.2018 06:21 1,8 C 90 % 1022,4 hPa 0,0 l/m 5,9 km/h (2 Bft) O-NO 76 0 min 0 W/m 0,3 C 1,8 C 17,7 km/h (3 Bft)
22.11.2018 06:24 1,8 C 90 % 1022,4 hPa 0,0 l/m 6,0 km/h (2 Bft) O-NO 63 0 min 0 W/m 0,3 C 1,8 C 17,7 km/h (3 Bft)
22.11.2018 06:27 1,8 C 90 % 1022,3 hPa 0,0 l/m 7,0 km/h (2 Bft) NO 51 0 min 0 W/m 0,3 C 1,2 C 20,9 km/h (4 Bft)
22.11.2018 06:30 1,8 C 90 % 1022,3 hPa 0,0 l/m 7,9 km/h (2 Bft) N 9 0 min 0 W/m 0,3 C 0,3 C 17,7 km/h (3 Bft)
22.11.2018 06:33 1,9 C 90 % 1022,3 hPa 0,0 l/m 6,9 km/h (2 Bft) O-NO 68 0 min 0 W/m 0,4 C 1,4 C 19,3 km/h (3 Bft)
22.11.2018 06:36 1,9 C 90 % 1022,3 hPa 0,0 l/m 5,8 km/h (2 Bft) O 90 0 min 0 W/m 0,4 C 1,9 C 16,1 km/h (3 Bft)
22.11.2018 06:39 1,9 C 90 % 1022,2 hPa 0,0 l/m 7,6 km/h (2 Bft) O 101 0 min 0 W/m 0,4 C 0,7 C 24,1 km/h (4 Bft)
22.11.2018 06:42 1,9 C 90 % 1022,2 hPa 0,0 l/m 6,7 km/h (2 Bft) O-NO 58 0 min 0 W/m 0,4 C 1,6 C 12,9 km/h (3 Bft)
22.11.2018 06:45 1,9 C 90 % 1022,2 hPa 0,0 l/m 6,1 km/h (2 Bft) O-NO 77 0 min 0 W/m 0,4 C 1,9 C 14,5 km/h (3 Bft)
22.11.2018 06:48 1,8 C 90 % 1022,2 hPa 0,0 l/m 5,3 km/h (1 Bft) N-NO 16 0 min 0 W/m 0,3 C 1,8 C 11,3 km/h (2 Bft)
22.11.2018 06:51 1,8 C 90 % 1022,1 hPa 0,0 l/m 8,0 km/h (2 Bft) O 87 0 min 0 W/m 0,3 C 0,2 C 17,7 km/h (3 Bft)
22.11.2018 06:54 1,8 C 90 % 1022,2 hPa 0,0 l/m 6,6 km/h (2 Bft) O-NO 71 0 min 0 W/m 0,3 C 1,6 C 14,5 km/h (3 Bft)
22.11.2018 06:57 1,8 C 90 % 1022,2 hPa 0,0 l/m 6,1 km/h (2 Bft) N-NW 329 0 min 0 W/m 0,3 C 1,8 C 12,9 km/h (3 Bft)
22.11.2018 07:00 1,8 C 90 % 1022,1 hPa 0,0 l/m 9,1 km/h (2 Bft) NO 42 0 min 0 W/m 0,3 C -0,7 C 17,7 km/h (3 Bft)
22.11.2018 07:03 1,8 C 90 % 1022,1 hPa 0,0 l/m 5,5 km/h (2 Bft) NO 42 0 min 0 W/m 0,3 C 1,8 C 11,3 km/h (2 Bft)
22.11.2018 07:06 1,9 C 90 % 1022,1 hPa 0,0 l/m 6,3 km/h (2 Bft) NO 56 0 min 0 W/m 0,4 C 1,9 C 19,3 km/h (3 Bft)
22.11.2018 07:09 1,9 C 90 % 1022,1 hPa 0,0 l/m 5,6 km/h (2 Bft) O 90 0 min 0 W/m 0,4 C 1,9 C 14,5 km/h (3 Bft)
22.11.2018 07:12 1,9 C 90 % 1022,2 hPa 0,0 l/m 6,4 km/h (2 Bft) N-NO 13 0 min 0 W/m 0,4 C 1,9 C 14,5 km/h (3 Bft)
22.11.2018 07:15 1,9 C 90 % 1022,2 hPa 0,0 l/m 4,9 km/h (1 Bft) N-NW 344 0 min 0 W/m 0,4 C 1,9 C 16,1 km/h (3 Bft)
22.11.2018 07:18 1,9 C 90 % 1022,2 hPa 0,0 l/m 5,2 km/h (1 Bft) N 5 0 min 0 W/m 0,4 C 1,9 C 11,3 km/h (2 Bft)
22.11.2018 07:21 1,9 C 90 % 1022,2 hPa 0,0 l/m 5,5 km/h (2 Bft) NO 40 0 min 0 W/m 0,4 C 1,9 C 11,3 km/h (2 Bft)
22.11.2018 07:24 1,9 C 90 % 1022,2 hPa 0,0 l/m 6,4 km/h (2 Bft) O-NO 66 0 min 0 W/m 0,4 C 1,9 C 16,1 km/h (3 Bft)
22.11.2018 07:27 1,9 C 90 % 1022,3 hPa 0,0 l/m 6,8 km/h (2 Bft) SO 133 0 min 0 W/m 0,4 C 1,5 C 17,7 km/h (3 Bft)
22.11.2018 07:30 1,9 C 90 % 1022,3 hPa 0,0 l/m 6,4 km/h (2 Bft) N-NO 33 0 min 0 W/m 0,4 C 1,9 C 17,7 km/h (3 Bft)
22.11.2018 07:33 1,9 C 90 % 1022,4 hPa 0,0 l/m 4,0 km/h (1 Bft) NO 40 0 min 0 W/m 0,4 C 1,9 C 9,7 km/h (2 Bft)
22.11.2018 07:36 1,9 C 90 % 1022,4 hPa 0,0 l/m 2,6 km/h (1 Bft) O 84 0 min 0 W/m 0,4 C 1,9 C 4,8 km/h (1 Bft)
22.11.2018 07:39 1,9 C 90 % 1022,4 hPa 0,0 l/m 5,1 km/h (1 Bft) N 5 0 min 0 W/m 0,4 C 1,9 C 14,5 km/h (3 Bft)
22.11.2018 07:42 1,9 C 90 % 1022,4 hPa 0,0 l/m 6,7 km/h (2 Bft) N-NW 338 0 min 0 W/m 0,4 C 1,6 C 14,5 km/h (3 Bft)
22.11.2018 07:45 1,9 C 90 % 1022,4 hPa 0,0 l/m 7,1 km/h (2 Bft) N-NO 32 0 min 0 W/m 0,4 C 1,2 C 14,5 km/h (3 Bft)
22.11.2018 07:48 1,9 C 90 % 1022,4 hPa 0,0 l/m 6,6 km/h (2 Bft) O 97 0 min 0 W/m 0,4 C 1,7 C 19,3 km/h (3 Bft)
22.11.2018 07:51 1,9 C 90 % 1022,4 hPa 0,0 l/m 6,5 km/h (2 Bft) O-SO 102 0 min 0 W/m 0,4 C 1,8 C 14,5 km/h (3 Bft)
22.11.2018 07:54 1,9 C 90 % 1022,5 hPa 0,0 l/m 6,4 km/h (2 Bft) O-NO 60 0 min 0 W/m 0,4 C 1,9 C 17,7 km/h (3 Bft)
22.11.2018 07:57 1,9 C 90 % 1022,4 hPa 0,0 l/m 6,2 km/h (2 Bft) O-NO 63 0 min 0 W/m 0,4 C 1,9 C 14,5 km/h (3 Bft)
22.11.2018 08:00 1,9 C 90 % 1022,4 hPa 0,0 l/m 5,9 km/h (2 Bft) NO 55 0 min 0 W/m 0,4 C 1,9 C 16,1 km/h (3 Bft)
22.11.2018 08:03 1,8 C 90 % 1022,4 hPa 0,0 l/m 6,3 km/h (2 Bft) N-NO 32 0 min 0 W/m 0,3 C 1,8 C 14,5 km/h (3 Bft)
22.11.2018 08:06 1,8 C 90 % 1022,4 hPa 0,0 l/m 5,7 km/h (2 Bft) O 96 0 min 0 W/m 0,3 C 1,8 C 16,1 km/h (3 Bft)
22.11.2018 08:09 1,8 C 90 % 1022,4 hPa 0,0 l/m 6,0 km/h (2 Bft) SO 144 0 min 0 W/m 0,3 C 1,8 C 12,9 km/h (3 Bft)
22.11.2018 08:12 1,8 C 90 % 1022,4 hPa 0,0 l/m 6,3 km/h (2 Bft) O 92 0 min 0 W/m 0,3 C 1,8 C 14,5 km/h (3 Bft)
22.11.2018 08:15 1,8 C 90 % 1022,5 hPa 0,0 l/m 4,9 km/h (1 Bft) NO 52 0 min 0 W/m 0,3 C 1,8 C 11,3 km/h (2 Bft)
22.11.2018 08:18 1,8 C 90 % 1022,4 hPa 0,0 l/m 7,1 km/h (2 Bft) O 80 0 min 0 W/m 0,3 C 1,1 C 17,7 km/h (3 Bft)
22.11.2018 08:21 1,8 C 90 % 1022,4 hPa 0,0 l/m 5,8 km/h (2 Bft) O-NO 76 0 min 0 W/m 0,3 C 1,8 C 16,1 km/h (3 Bft)
22.11.2018 08:24 1,8 C 90 % 1022,4 hPa 0,0 l/m 4,4 km/h (1 Bft) O-NO 78 0 min 0 W/m 0,3 C 1,8 C 9,7 km/h (2 Bft)
22.11.2018 08:27 1,8 C 90 % 1022,4 hPa 0,0 l/m 9,1 km/h (2 Bft) O-SO 119 0 min 5 W/m 0,3 C -0,7 C 19,3 km/h (3 Bft)
22.11.2018 08:30 1,8 C 90 % 1022,4 hPa 0,0 l/m 6,3 km/h (2 Bft) O 92 0 min 5 W/m 0,3 C 1,8 C 14,5 km/h (3 Bft)
22.11.2018 08:33 1,8 C 90 % 1022,3 hPa 0,0 l/m 6,4 km/h (2 Bft) O-NO 72 0 min 5 W/m 0,3 C 1,8 C 24,1 km/h (4 Bft)
22.11.2018 08:36 1,8 C 90 % 1022,4 hPa 0,0 l/m 6,5 km/h (2 Bft) S-SO 147 0 min 5 W/m 0,3 C 1,7 C 20,9 km/h (4 Bft)
22.11.2018 08:39 1,8 C 90 % 1022,4 hPa 0,0 l/m 4,0 km/h (1 Bft) NW 317 0 min 7 W/m 0,3 C 1,8 C 9,7 km/h (2 Bft)
22.11.2018 08:42 1,8 C 90 % 1022,4 hPa 0,0 l/m 4,4 km/h (1 Bft) O 79 0 min 9 W/m 0,3 C 1,8 C 9,7 km/h (2 Bft)
22.11.2018 08:45 1,9 C 90 % 1022,4 hPa 0,0 l/m 3,9 km/h (1 Bft) NO 38 0 min 9 W/m 0,4 C 1,9 C 9,7 km/h (2 Bft)
22.11.2018 08:48 1,8 C 90 % 1022,4 hPa 0,0 l/m 6,6 km/h (2 Bft) O-NO 64 0 min 7 W/m 0,3 C 1,6 C 12,9 km/h (3 Bft)
22.11.2018 08:51 1,8 C 90 % 1022,4 hPa 0,0 l/m 6,2 km/h (2 Bft) O-NO 73 0 min 9 W/m 0,3 C 1,8 C 14,5 km/h (3 Bft)
22.11.2018 08:54 1,9 C 90 % 1022,5 hPa 0,0 l/m 5,7 km/h (2 Bft) O 82 0 min 9 W/m 0,4 C 1,9 C 19,3 km/h (3 Bft)
22.11.2018 08:57 1,9 C 90 % 1022,5 hPa 0,0 l/m 6,3 km/h (2 Bft) O 82 0 min 9 W/m 0,4 C 1,9 C 14,5 km/h (3 Bft)
22.11.2018 09:00 1,9 C 90 % 1022,5 hPa 0,0 l/m 4,9 km/h (1 Bft) NO 39 0 min 12 W/m 0,4 C 1,9 C 11,3 km/h (2 Bft)
22.11.2018 09:03 1,9 C 90 % 1022,5 hPa 0,0 l/m 6,2 km/h (2 Bft) O-SO 105 0 min 14 W/m 0,4 C 1,9 C 14,5 km/h (3 Bft)
22.11.2018 09:06 1,9 C 90 % 1022,5 hPa 0,0 l/m 5,4 km/h (2 Bft) N-NW 348 0 min 12 W/m 0,4 C 1,9 C 16,1 km/h (3 Bft)
22.11.2018 09:09 1,9 C 90 % 1022,4 hPa 0,0 l/m 6,6 km/h (2 Bft) O 86 0 min 12 W/m 0,4 C 1,7 C 20,9 km/h (4 Bft)
22.11.2018 09:12 1,9 C 90 % 1022,4 hPa 0,0 l/m 4,6 km/h (1 Bft) NO 47 0 min 16 W/m 0,4 C 1,9 C 11,3 km/h (2 Bft)
22.11.2018 09:15 1,9 C 90 % 1022,4 hPa 0,0 l/m 6,1 km/h (2 Bft) NO 49 0 min 19 W/m 0,4 C 1,9 C 14,5 km/h (3 Bft)
22.11.2018 09:18 1,9 C 90 % 1022,5 hPa 0,0 l/m 4,3 km/h (1 Bft) O-NO 65 0 min 14 W/m 0,4 C 1,9 C 14,5 km/h (3 Bft)
22.11.2018 09:21 2,0 C 90 % 1022,5 hPa 0,0 l/m 5,8 km/h (2 Bft) O-NO 61 0 min 14 W/m 0,5 C 2,0 C 16,1 km/h (3 Bft)
22.11.2018 09:24 2,0 C 91 % 1022,5 hPa 0,0 l/m 6,5 km/h (2 Bft) N 355 0 min 11 W/m 0,7 C 1,9 C 14,5 km/h (3 Bft)
22.11.2018 09:27 2,0 C 91 % 1022,5 hPa 0,0 l/m 6,6 km/h (2 Bft) O-NO 65 0 min 18 W/m 0,7 C 1,8 C 19,3 km/h (3 Bft)
22.11.2018 09:30 2,0 C 91 % 1022,5 hPa 0,0 l/m 5,4 km/h (2 Bft) O 90 0 min 12 W/m 0,7 C 2,0 C 9,7 km/h (2 Bft)
22.11.2018 09:33 2,0 C 90 % 1022,5 hPa 0,0 l/m 6,6 km/h (2 Bft) O-NO 63 0 min 14 W/m 0,5 C 1,8 C 16,1 km/h (3 Bft)
22.11.2018 09:36 2,0 C 90 % 1022,5 hPa 0,0 l/m 7,7 km/h (2 Bft) O 98 0 min 14 W/m 0,5 C 0,7 C 14,5 km/h (3 Bft)
22.11.2018 09:39 2,1 C 90 % 1022,5 hPa 0,0 l/m 5,5 km/h (2 Bft) O 84 0 min 14 W/m 0,6 C 2,1 C 16,1 km/h (3 Bft)
22.11.2018 09:42 2,1 C 90 % 1022,5 hPa 0,0 l/m 5,8 km/h (2 Bft) NO 46 0 min 16 W/m 0,6 C 2,1 C 12,9 km/h (3 Bft)
22.11.2018 09:45 2,1 C 90 % 1022,5 hPa 0,0 l/m 7,2 km/h (2 Bft) O-NO 65 0 min 18 W/m 0,6 C 1,3 C 19,3 km/h (3 Bft)
22.11.2018 09:48 2,1 C 90 % 1022,6 hPa 0,0 l/m 4,4 km/h (1 Bft) O 90 0 min 19 W/m 0,6 C 2,1 C 11,3 km/h (2 Bft)
22.11.2018 09:51 2,1 C 90 % 1022,6 hPa 0,0 l/m 6,1 km/h (2 Bft) NO 39 0 min 18 W/m 0,6 C 2,1 C 14,5 km/h (3 Bft)
22.11.2018 09:54 2,1 C 90 % 1022,6 hPa 0,0 l/m 6,7 km/h (2 Bft) SO 134 0 min 25 W/m 0,6 C 1,8 C 14,5 km/h (3 Bft)
22.11.2018 09:57 2,1 C 90 % 1022,5 hPa 0,0 l/m 5,6 km/h (2 Bft) O-SO 108 0 min 21 W/m 0,6 C 2,1 C 12,9 km/h (3 Bft)
22.11.2018 10:00 2,1 C 90 % 1022,6 hPa 0,0 l/m 6,1 km/h (2 Bft) O-SO 105 0 min 18 W/m 0,6 C 2,1 C 17,7 km/h (3 Bft)
22.11.2018 10:03 2,1 C 90 % 1022,5 hPa 0,0 l/m 6,6 km/h (2 Bft) O-NO 64 0 min 23 W/m 0,6 C 1,9 C 16,1 km/h (3 Bft)
22.11.2018 10:06 2,1 C 90 % 1022,6 hPa 0,0 l/m 4,6 km/h (1 Bft) O 87 0 min 30 W/m 0,6 C 2,1 C 11,3 km/h (2 Bft)
22.11.2018 10:09 2,1 C 90 % 1022,5 hPa 0,0 l/m 6,6 km/h (2 Bft) NO 48 0 min 35 W/m 0,6 C 1,9 C 20,9 km/h (4 Bft)
22.11.2018 10:12 2,2 C 90 % 1022,6 hPa 0,0 l/m 5,2 km/h (1 Bft) O 101 0 min 30 W/m 0,7 C 2,2 C 11,3 km/h (2 Bft)
22.11.2018 10:15 2,2 C 90 % 1022,6 hPa 0,0 l/m 3,9 km/h (1 Bft) NO 55 0 min 33 W/m 0,7 C 2,2 C 8,0 km/h (2 Bft)
22.11.2018 10:18 2,2 C 90 % 1022,5 hPa 0,0 l/m 4,6 km/h (1 Bft) NO 34 0 min 42 W/m 0,7 C 2,2 C 12,9 km/h (3 Bft)
22.11.2018 10:21 2,2 C 90 % 1022,6 hPa 0,0 l/m 7,2 km/h (2 Bft) SO 124 0 min 46 W/m 0,7 C 1,4 C 19,3 km/h (3 Bft)
22.11.2018 10:24 2,2 C 90 % 1022,5 hPa 0,0 l/m 3,3 km/h (1 Bft) NO 36 0 min 40 W/m 0,7 C 2,2 C 9,7 km/h (2 Bft)
22.11.2018 10:27 2,3 C 90 % 1022,5 hPa 0,0 l/m 6,1 km/h (2 Bft) O 100 0 min 44 W/m 0,8 C 2,3 C 14,5 km/h (3 Bft)
22.11.2018 10:30 2,3 C 90 % 1022,5 hPa 0,0 l/m 7,7 km/h (2 Bft) O 86 0 min 53 W/m 0,8 C 1,0 C 20,9 km/h (4 Bft)
22.11.2018 10:33 2,2 C 90 % 1022,6 hPa 0,0 l/m 7,8 km/h (2 Bft) NO 49 0 min 42 W/m 0,7 C 0,8 C 16,1 km/h (3 Bft)
22.11.2018 10:36 2,3 C 90 % 1022,6 hPa 0,0 l/m 8,4 km/h (2 Bft) NO 51 0 min 56 W/m 0,8 C 0,4 C 19,3 km/h (3 Bft)
22.11.2018 10:39 2,3 C 90 % 1022,5 hPa 0,0 l/m 4,3 km/h (1 Bft) O 86 0 min 62 W/m 0,8 C 2,3 C 8,0 km/h (2 Bft)
22.11.2018 10:42 2,3 C 90 % 1022,6 hPa 0,0 l/m 5,4 km/h (2 Bft) NO 42 0 min 54 W/m 0,8 C 2,3 C 12,9 km/h (3 Bft)
22.11.2018 10:45 2,4 C 90 % 1022,6 hPa 0,0 l/m 6,1 km/h (2 Bft) O-SO 123 0 min 72 W/m 0,9 C 2,4 C 12,9 km/h (3 Bft)
22.11.2018 10:48 2,4 C 90 % 1022,5 hPa 0,0 l/m 5,7 km/h (2 Bft) O-NO 62 0 min 72 W/m 0,9 C 2,4 C 11,3 km/h (2 Bft)
22.11.2018 10:51 2,4 C 90 % 1022,6 hPa 0,0 l/m 6,0 km/h (2 Bft) O-NO 71 0 min 49 W/m 0,9 C 2,4 C 17,7 km/h (3 Bft)
22.11.2018 10:54 2,4 C 90 % 1022,5 hPa 0,0 l/m 5,4 km/h (2 Bft) SO 134 0 min 58 W/m 0,9 C 2,4 C 16,1 km/h (3 Bft)
22.11.2018 10:57 2,4 C 90 % 1022,6 hPa 0,0 l/m 6,1 km/h (2 Bft) NO 43 0 min 70 W/m 0,9 C 2,4 C 14,5 km/h (3 Bft)
22.11.2018 11:00 2,5 C 90 % 1022,5 hPa 0,0 l/m 6,5 km/h (2 Bft) N-NO 33 0 min 79 W/m 1,0 C 2,4 C 17,7 km/h (3 Bft)
22.11.2018 11:03 2,6 C 90 % 1022,6 hPa 0,0 l/m 5,4 km/h (2 Bft) O-NO 60 0 min 76 W/m 1,1 C 2,6 C 14,5 km/h (3 Bft)
22.11.2018 11:06 2,6 C 89 % 1022,4 hPa 0,0 l/m 6,1 km/h (2 Bft) N-NO 28 0 min 102 W/m 1,0 C 2,6 C 14,5 km/h (3 Bft)
22.11.2018 11:09 2,7 C 89 % 1022,4 hPa 0,0 l/m 5,5 km/h (2 Bft) NO 53 0 min 134 W/m 1,1 C 2,7 C 17,7 km/h (3 Bft)
22.11.2018 11:12 2,7 C 89 % 1022,4 hPa 0,0 l/m 6,3 km/h (2 Bft) SO 128 0 min 69 W/m 1,1 C 2,7 C 19,3 km/h (3 Bft)
22.11.2018 11:15 2,7 C 89 % 1022,4 hPa 0,0 l/m 7,8 km/h (2 Bft) O-NO 58 0 min 39 W/m 1,1 C 1,4 C 22,5 km/h (4 Bft)
22.11.2018 11:18 2,7 C 89 % 1022,3 hPa 0,0 l/m 6,0 km/h (2 Bft) O-NO 65 0 min 37 W/m 1,1 C 2,7 C 14,5 km/h (3 Bft)
22.11.2018 11:21 2,6 C 89 % 1022,4 hPa 0,0 l/m 5,5 km/h (2 Bft) O 97 0 min 56 W/m 1,0 C 2,6 C 16,1 km/h (3 Bft)
22.11.2018 11:24 2,6 C 89 % 1022,4 hPa 0,0 l/m 5,5 km/h (2 Bft) O 82 0 min 51 W/m 1,0 C 2,6 C 14,5 km/h (3 Bft)
22.11.2018 11:27 2,6 C 88 % 1022,3 hPa 0,0 l/m 6,7 km/h (2 Bft) S 183 0 min 53 W/m 0,8 C 2,3 C 14,5 km/h (3 Bft)
22.11.2018 11:30 2,6 C 88 % 1022,3 hPa 0,0 l/m 5,4 km/h (2 Bft) O-SO 111 0 min 60 W/m 0,8 C 2,6 C 11,3 km/h (2 Bft)
22.11.2018 11:33 2,6 C 88 % 1022,3 hPa 0,0 l/m 8,8 km/h (2 Bft) S-SO 162 0 min 60 W/m 0,8 C 0,4 C 16,1 km/h (3 Bft)
22.11.2018 11:36 2,6 C 88 % 1022,3 hPa 0,0 l/m 5,2 km/h (1 Bft) O-SO 104 0 min 54 W/m 0,8 C 2,6 C 11,3 km/h (2 Bft)
22.11.2018 11:39 2,6 C 88 % 1022,3 hPa 0,0 l/m 7,5 km/h (2 Bft) S 182 0 min 60 W/m 0,8 C 1,5 C 16,1 km/h (3 Bft)
22.11.2018 11:42 2,6 C 88 % 1022,3 hPa 0,0 l/m 5,9 km/h (2 Bft) NO 47 0 min 56 W/m 0,8 C 2,6 C 12,9 km/h (3 Bft)
22.11.2018 11:45 2,6 C 88 % 1022,2 hPa 0,0 l/m 6,9 km/h (2 Bft) O 100 0 min 65 W/m 0,8 C 2,1 C 16,1 km/h (3 Bft)
22.11.2018 11:48 2,6 C 88 % 1022,2 hPa 0,0 l/m 7,4 km/h (2 Bft) N-NO 26 0 min 69 W/m 0,8 C 1,6 C 14,5 km/h (3 Bft)
22.11.2018 11:51 2,6 C 88 % 1022,2 hPa 0,0 l/m 7,2 km/h (2 Bft) NO 34 0 min 72 W/m 0,8 C 1,8 C 17,7 km/h (3 Bft)
22.11.2018 11:54 2,7 C 88 % 1022,2 hPa 0,0 l/m 5,3 km/h (1 Bft) N-NW 335 0 min 72 W/m 0,9 C 2,7 C 14,5 km/h (3 Bft)
22.11.2018 11:57 2,7 C 88 % 1022,1 hPa 0,0 l/m 4,9 km/h (1 Bft) O-NO 78 0 min 76 W/m 0,9 C 2,7 C 16,1 km/h (3 Bft)
22.11.2018 12:00 2,7 C 88 % 1022,1 hPa 0,0 l/m 5,1 km/h (1 Bft) NO 42 0 min 79 W/m 0,9 C 2,7 C 11,3 km/h (2 Bft)
22.11.2018 12:03 2,8 C 88 % 1022,1 hPa 0,0 l/m 7,4 km/h (2 Bft) NO 55 0 min 62 W/m 1,0 C 1,8 C 16,1 km/h (3 Bft)
22.11.2018 12:06 2,8 C 88 % 1022,1 hPa 0,0 l/m 7,8 km/h (2 Bft) NO 54 0 min 69 W/m 1,0 C 1,5 C 14,5 km/h (3 Bft)
22.11.2018 12:09 2,8 C 88 % 1022,0 hPa 0,0 l/m 6,4 km/h (2 Bft) NO 38 0 min 81 W/m 1,0 C 2,8 C 16,1 km/h (3 Bft)
22.11.2018 12:12 2,8 C 88 % 1022,1 hPa 0,0 l/m 6,5 km/h (2 Bft) N-NO 12 0 min 121 W/m 1,0 C 2,7 C 16,1 km/h (3 Bft)
22.11.2018 12:15 2,9 C 88 % 1022,1 hPa 0,0 l/m 8,5 km/h (2 Bft) O 80 0 min 142 W/m 1,1 C 1,0 C 17,7 km/h (3 Bft)
22.11.2018 12:18 2,9 C 88 % 1022,0 hPa 0,0 l/m 7,2 km/h (2 Bft) O 91 0 min 146 W/m 1,1 C 2,1 C 17,7 km/h (3 Bft)
22.11.2018 12:21 3,0 C 88 % 1022,0 hPa 0,0 l/m 7,5 km/h (2 Bft) NO 48 0 min 69 W/m 1,2 C 2,0 C 24,1 km/h (4 Bft)
22.11.2018 12:24 3,0 C 87 % 1022,1 hPa 0,0 l/m 9,4 km/h (2 Bft) O-SO 115 0 min 51 W/m 1,1 C 0,3 C 24,1 km/h (4 Bft)
22.11.2018 12:27 2,9 C 87 % 1022,0 hPa 0,0 l/m 8,0 km/h (2 Bft) O-SO 118 0 min 30 W/m 1,0 C 1,4 C 17,7 km/h (3 Bft)
22.11.2018 12:30 2,9 C 87 % 1022,0 hPa 0,0 l/m 7,8 km/h (2 Bft) O-SO 105 0 min 19 W/m 1,0 C 1,6 C 19,3 km/h (3 Bft)
22.11.2018 12:33 2,8 C 87 % 1022,1 hPa 0,0 l/m 6,2 km/h (2 Bft) O 95 0 min 26 W/m 0,9 C 2,8 C 14,5 km/h (3 Bft)
22.11.2018 12:36 2,8 C 87 % 1022,0 hPa 0,0 l/m 3,8 km/h (1 Bft) O-SO 105 0 min 30 W/m 0,9 C 2,8 C 8,0 km/h (2 Bft)
22.11.2018 12:39 2,8 C 87 % 1021,9 hPa 0,0 l/m 6,6 km/h (2 Bft) SO 144 0 min 39 W/m 0,9 C 2,6 C 16,1 km/h (3 Bft)
22.11.2018 12:42 2,8 C 87 % 1021,9 hPa 0,0 l/m 4,3 km/h (1 Bft) O-SO 105 0 min 26 W/m 0,9 C 2,8 C 11,3 km/h (2 Bft)
22.11.2018 12:45 2,8 C 87 % 1022,0 hPa 0,0 l/m 7,4 km/h (2 Bft) O-SO 111 0 min 39 W/m 0,9 C 1,8 C 19,3 km/h (3 Bft)
22.11.2018 12:48 2,7 C 87 % 1021,9 hPa 0,0 l/m 8,0 km/h (2 Bft) NO 42 0 min 37 W/m 0,8 C 1,2 C 19,3 km/h (3 Bft)
22.11.2018 12:51 2,7 C 87 % 1021,9 hPa 0,0 l/m 6,3 km/h (2 Bft) O-SO 114 0 min 33 W/m 0,8 C 2,7 C 16,1 km/h (3 Bft)
22.11.2018 12:54 2,7 C 87 % 1021,9 hPa 0,0 l/m 7,2 km/h (2 Bft) NO 42 0 min 49 W/m 0,8 C 1,9 C 16,1 km/h (3 Bft)
22.11.2018 12:57 2,7 C 87 % 1021,8 hPa 0,0 l/m 6,8 km/h (2 Bft) O-SO 116 0 min 65 W/m 0,8 C 2,3 C 14,5 km/h (3 Bft)
22.11.2018 13:00 2,7 C 87 % 1021,8 hPa 0,0 l/m 5,6 km/h (2 Bft) O-SO 112 0 min 70 W/m 0,8 C 2,7 C 11,3 km/h (2 Bft)
22.11.2018 13:03 2,7 C 87 % 1021,8 hPa 0,0 l/m 4,6 km/h (1 Bft) O-SO 106 0 min 60 W/m 0,8 C 2,7 C 12,9 km/h (3 Bft)
22.11.2018 13:06 2,8 C 87 % 1021,8 hPa 0,0 l/m 5,5 km/h (2 Bft) NO 50 0 min 44 W/m 0,9 C 2,8 C 14,5 km/h (3 Bft)
22.11.2018 13:09 2,8 C 87 % 1021,8 hPa 0,0 l/m 8,0 km/h (2 Bft) S-SO 147 0 min 81 W/m 0,9 C 1,3 C 14,5 km/h (3 Bft)
22.11.2018 13:12 2,8 C 87 % 1021,8 hPa 0,0 l/m 6,6 km/h (2 Bft) SO 146 0 min 58 W/m 0,9 C 2,6 C 16,1 km/h (3 Bft)
22.11.2018 13:15 2,8 C 87 % 1021,8 hPa 0,0 l/m 6,8 km/h (2 Bft) O-NO 69 0 min 62 W/m 0,9 C 2,4 C 17,7 km/h (3 Bft)
22.11.2018 13:18 2,8 C 87 % 1021,7 hPa 0,0 l/m 6,0 km/h (2 Bft) O 88 0 min 32 W/m 0,9 C 2,8 C 14,5 km/h (3 Bft)
22.11.2018 13:21 2,8 C 87 % 1021,7 hPa 0,0 l/m 3,2 km/h (1 Bft) O 88 0 min 16 W/m 0,9 C 2,8 C 6,4 km/h (2 Bft)
22.11.2018 13:24 2,8 C 87 % 1021,8 hPa 0,0 l/m 4,4 km/h (1 Bft) NO 47 0 min 21 W/m 0,9 C 2,8 C 16,1 km/h (3 Bft)
22.11.2018 13:27 2,9 C 87 % 1021,7 hPa 0,0 l/m 7,5 km/h (2 Bft) O-SO 123 0 min 28 W/m 1,0 C 1,9 C 17,7 km/h (3 Bft)
22.11.2018 13:30 2,8 C 86 % 1021,7 hPa 0,0 l/m 3,8 km/h (1 Bft) SO 128 0 min 26 W/m 0,7 C 2,8 C 8,0 km/h (2 Bft)
22.11.2018 13:33 2,8 C 86 % 1021,6 hPa 0,0 l/m 6,8 km/h (2 Bft) SO 138 0 min 30 W/m 0,7 C 2,4 C 17,7 km/h (3 Bft)
22.11.2018 13:36 2,8 C 86 % 1021,7 hPa 0,0 l/m 7,8 km/h (2 Bft) N-NO 18 0 min 26 W/m 0,7 C 1,5 C 17,7 km/h (3 Bft)
22.11.2018 13:39 2,8 C 86 % 1021,7 hPa 0,0 l/m 7,0 km/h (2 Bft) O-SO 109 0 min 25 W/m 0,7 C 2,2 C 14,5 km/h (3 Bft)
22.11.2018 13:42 2,8 C 86 % 1021,6 hPa 0,0 l/m 6,3 km/h (2 Bft) SO 130 0 min 19 W/m 0,7 C 2,8 C 14,5 km/h (3 Bft)
22.11.2018 13:45 2,8 C 86 % 1021,6 hPa 0,0 l/m 7,5 km/h (2 Bft) O-SO 107 0 min 19 W/m 0,7 C 1,8 C 19,3 km/h (3 Bft)
22.11.2018 13:48 2,8 C 86 % 1021,6 hPa 0,0 l/m 4,5 km/h (1 Bft) O-NO 78 0 min 25 W/m 0,7 C 2,8 C 9,7 km/h (2 Bft)
22.11.2018 13:51 2,8 C 86 % 1021,5 hPa 0,0 l/m 4,6 km/h (1 Bft) W-SW 247 0 min 23 W/m 0,7 C 2,8 C 20,9 km/h (4 Bft)
22.11.2018 13:54 2,8 C 86 % 1021,5 hPa 0,0 l/m 6,7 km/h (2 Bft) NO 46 0 min 26 W/m 0,7 C 2,5 C 17,7 km/h (3 Bft)
22.11.2018 13:57 2,8 C 87 % 1021,5 hPa 0,0 l/m 6,4 km/h (2 Bft) O 88 0 min 30 W/m 0,9 C 2,8 C 17,7 km/h (3 Bft)
22.11.2018 14:00 2,8 C 86 % 1021,5 hPa 0,0 l/m 7,1 km/h (2 Bft) O 83 0 min 33 W/m 0,7 C 2,1 C 17,7 km/h (3 Bft)
22.11.2018 14:03 2,8 C 87 % 1021,4 hPa 0,0 l/m 6,3 km/h (2 Bft) SO 131 0 min 26 W/m 0,9 C 2,8 C 17,7 km/h (3 Bft)
22.11.2018 14:06 2,8 C 86 % 1021,4 hPa 0,0 l/m 6,1 km/h (2 Bft) O 93 0 min 28 W/m 0,7 C 2,8 C 11,3 km/h (2 Bft)
22.11.2018 14:09 2,8 C 87 % 1021,4 hPa 0,0 l/m 5,2 km/h (1 Bft) O 92 0 min 21 W/m 0,9 C 2,8 C 11,3 km/h (2 Bft)
22.11.2018 14:12 2,8 C 86 % 1021,4 hPa 0,0 l/m 7,0 km/h (2 Bft) NO 34 0 min 25 W/m 0,7 C 2,2 C 14,5 km/h (3 Bft)
22.11.2018 14:15 2,8 C 87 % 1021,4 hPa 0,0 l/m 5,9 km/h (2 Bft) O-SO 105 0 min 25 W/m 0,9 C 2,8 C 17,7 km/h (3 Bft)
22.11.2018 14:18 2,8 C 87 % 1021,4 hPa 0,0 l/m 6,8 km/h (2 Bft) SO 146 0 min 28 W/m 0,9 C 2,4 C 16,1 km/h (3 Bft)
22.11.2018 14:21 2,8 C 86 % 1021,4 hPa 0,0 l/m 7,9 km/h (2 Bft) O-SO 119 0 min 33 W/m 0,7 C 1,4 C 16,1 km/h (3 Bft)
22.11.2018 14:24 2,8 C 86 % 1021,4 hPa 0,0 l/m 7,5 km/h (2 Bft) O-SO 119 0 min 37 W/m 0,7 C 1,8 C 14,5 km/h (3 Bft)
22.11.2018 14:27 2,8 C 86 % 1021,5 hPa 0,0 l/m 5,4 km/h (2 Bft) SO 126 0 min 25 W/m 0,7 C 2,8 C 16,1 km/h (3 Bft)
22.11.2018 14:30 2,8 C 87 % 1021,4 hPa 0,0 l/m 6,9 km/h (2 Bft) O-NO 76 0 min 25 W/m 0,9 C 2,3 C 19,3 km/h (3 Bft)
22.11.2018 14:33 2,8 C 87 % 1021,4 hPa 0,0 l/m 4,7 km/h (1 Bft) O 92 0 min 21 W/m 0,9 C 2,8 C 11,3 km/h (2 Bft)
22.11.2018 14:36 2,9 C 87 % 1021,4 hPa 0,0 l/m 4,7 km/h (1 Bft) O 79 0 min 26 W/m 1,0 C 2,9 C 14,5 km/h (3 Bft)
22.11.2018 14:39 2,9 C 87 % 1021,4 hPa 0,0 l/m 5,6 km/h (2 Bft) SO 124 0 min 28 W/m 1,0 C 2,9 C 11,3 km/h (2 Bft)
22.11.2018 14:42 2,9 C 86 % 1021,4 hPa 0,0 l/m 6,6 km/h (2 Bft) SO 127 0 min 23 W/m 0,8 C 2,7 C 16,1 km/h (3 Bft)
22.11.2018 14:45 2,9 C 86 % 1021,4 hPa 0,0 l/m 5,5 km/h (2 Bft) W-SW 257 0 min 23 W/m 0,8 C 2,9 C 16,1 km/h (3 Bft)
22.11.2018 14:48 2,9 C 87 % 1021,4 hPa 0,0 l/m 4,8 km/h (1 Bft) O-SO 121 0 min 18 W/m 1,0 C 2,9 C 12,9 km/h (3 Bft)
22.11.2018 14:51 2,9 C 86 % 1021,4 hPa 0,0 l/m 6,4 km/h (2 Bft) O 92 0 min 12 W/m 0,8 C 2,9 C 14,5 km/h (3 Bft)
22.11.2018 14:54 2,8 C 86 % 1021,4 hPa 0,0 l/m 7,4 km/h (2 Bft) O-SO 110 0 min 9 W/m 0,7 C 1,8 C 20,9 km/h (4 Bft)
22.11.2018 14:57 2,8 C 86 % 1021,4 hPa 0,0 l/m 5,9 km/h (2 Bft) SO 127 0 min 11 W/m 0,7 C 2,8 C 16,1 km/h (3 Bft)
22.11.2018 15:00 2,8 C 86 % 1021,3 hPa 0,0 l/m 4,1 km/h (1 Bft) O 101 0 min 12 W/m 0,7 C 2,8 C 11,3 km/h (2 Bft)
22.11.2018 15:03 2,8 C 86 % 1021,3 hPa 0,0 l/m 7,0 km/h (2 Bft) O 88 0 min 23 W/m 0,7 C 2,2 C 12,9 km/h (3 Bft)
22.11.2018 15:06 2,8 C 86 % 1021,3 hPa 0,0 l/m 4,9 km/h (1 Bft) O-NO 65 0 min 18 W/m 0,7 C 2,8 C 12,9 km/h (3 Bft)
22.11.2018 15:09 2,8 C 86 % 1021,2 hPa 0,0 l/m 3,8 km/h (1 Bft) O-NO 78 0 min 12 W/m 0,7 C 2,8 C 12,9 km/h (3 Bft)
22.11.2018 15:12 2,8 C 86 % 1021,2 hPa 0,0 l/m 5,2 km/h (1 Bft) O-SO 117 0 min 11 W/m 0,7 C 2,8 C 11,3 km/h (2 Bft)
22.11.2018 15:15 2,8 C 86 % 1021,2 hPa 0,0 l/m 5,9 km/h (2 Bft) NO 49 0 min 12 W/m 0,7 C 2,8 C 11,3 km/h (2 Bft)
22.11.2018 15:18 2,8 C 86 % 1021,2 hPa 0,0 l/m 5,1 km/h (1 Bft) SO 135 0 min 9 W/m 0,7 C 2,8 C 12,9 km/h (3 Bft)
22.11.2018 15:21 2,8 C 86 % 1021,2 hPa 0,0 l/m 5,6 km/h (2 Bft) O 100 0 min 9 W/m 0,7 C 2,8 C 14,5 km/h (3 Bft)
22.11.2018 15:24 2,8 C 86 % 1021,2 hPa 0,0 l/m 5,4 km/h (2 Bft) O-NO 65 0 min 9 W/m 0,7 C 2,8 C 14,5 km/h (3 Bft)
22.11.2018 15:27 2,8 C 86 % 1021,3 hPa 0,0 l/m 4,6 km/h (1 Bft) O-SO 120 0 min 11 W/m 0,7 C 2,8 C 16,1 km/h (3 Bft)
22.11.2018 15:30 2,8 C 86 % 1021,3 hPa 0,0 l/m 3,5 km/h (1 Bft) SO 128 0 min 9 W/m 0,7 C 2,8 C 9,7 km/h (2 Bft)
22.11.2018 15:33 2,8 C 86 % 1021,2 hPa 0,0 l/m 7,0 km/h (2 Bft) O-SO 113 0 min 9 W/m 0,7 C 2,2 C 17,7 km/h (3 Bft)
22.11.2018 15:36 2,8 C 86 % 1021,2 hPa 0,0 l/m 5,6 km/h (2 Bft) O 92 0 min 7 W/m 0,7 C 2,8 C 12,9 km/h (3 Bft)
22.11.2018 15:39 2,8 C 86 % 1021,2 hPa 0,0 l/m 5,8 km/h (2 Bft) O-SO 111 0 min 5 W/m 0,7 C 2,8 C 12,9 km/h (3 Bft)
22.11.2018 15:42 2,8 C 87 % 1021,2 hPa 0,0 l/m 3,6 km/h (1 Bft) S 169 0 min 5 W/m 0,9 C 2,8 C 9,7 km/h (2 Bft)
22.11.2018 15:45 2,8 C 87 % 1021,2 hPa 0,0 l/m 8,1 km/h (2 Bft) O-NO 68 0 min 0 W/m 0,9 C 1,2 C 16,1 km/h (3 Bft)
22.11.2018 15:48 2,8 C 87 % 1021,2 hPa 0,0 l/m 3,4 km/h (1 Bft) O 84 0 min 0 W/m 0,9 C 2,8 C 12,9 km/h (3 Bft)
22.11.2018 15:51 2,8 C 87 % 1021,3 hPa 0,0 l/m 6,0 km/h (2 Bft) O 101 0 min 0 W/m 0,9 C 2,8 C 12,9 km/h (3 Bft)
22.11.2018 15:54 2,8 C 87 % 1021,3 hPa 0,0 l/m 6,1 km/h (2 Bft) O-NO 69 0 min 0 W/m 0,9 C 2,8 C 14,5 km/h (3 Bft)
22.11.2018 15:57 2,8 C 87 % 1021,3 hPa 0,0 l/m 4,3 km/h (1 Bft) SO 124 0 min 0 W/m 0,9 C 2,8 C 8,0 km/h (2 Bft)
22.11.2018 16:00 2,7 C 87 % 1021,3 hPa 0,0 l/m 6,4 km/h (2 Bft) SO 138 0 min 0 W/m 0,8 C 2,7 C 14,5 km/h (3 Bft)
22.11.2018 16:03 2,7 C 87 % 1021,3 hPa 0,0 l/m 6,1 km/h (2 Bft) S 177 0 min 0 W/m 0,8 C 2,7 C 14,5 km/h (3 Bft)
22.11.2018 16:06 2,7 C 87 % 1021,2 hPa 0,0 l/m 4,0 km/h (1 Bft) NO 44 0 min 0 W/m 0,8 C 2,7 C 14,5 km/h (3 Bft)
22.11.2018 16:09 2,7 C 87 % 1021,3 hPa 0,0 l/m 5,1 km/h (1 Bft) SO 135 0 min 0 W/m 0,8 C 2,7 C 19,3 km/h (3 Bft)
22.11.2018 16:12 2,7 C 87 % 1021,2 hPa 0,0 l/m 5,1 km/h (1 Bft) O 85 0 min 0 W/m 0,8 C 2,7 C 14,5 km/h (3 Bft)
22.11.2018 16:15 2,7 C 87 % 1021,3 hPa 0,0 l/m 5,1 km/h (1 Bft) O-SO 108 0 min 0 W/m 0,8 C 2,7 C 12,9 km/h (3 Bft)
22.11.2018 16:18 2,7 C 87 % 1021,3 hPa 0,0 l/m 4,5 km/h (1 Bft) O 84 0 min 0 W/m 0,8 C 2,7 C 14,5 km/h (3 Bft)
22.11.2018 16:21 2,7 C 87 % 1021,3 hPa 0,0 l/m 4,9 km/h (1 Bft) SO 145 0 min 0 W/m 0,8 C 2,7 C 11,3 km/h (2 Bft)
22.11.2018 16:24 2,7 C 87 % 1021,3 hPa 0,0 l/m 5,7 km/h (2 Bft) O-SO 109 0 min 0 W/m 0,8 C 2,7 C 14,5 km/h (3 Bft)
22.11.2018 16:27 2,7 C 87 % 1021,3 hPa 0,0 l/m 3,9 km/h (1 Bft) SO 131 0 min 0 W/m 0,8 C 2,7 C 11,3 km/h (2 Bft)
22.11.2018 16:30 2,7 C 87 % 1021,3 hPa 0,0 l/m 6,3 km/h (2 Bft) O 90 0 min 0 W/m 0,8 C 2,7 C 14,5 km/h (3 Bft)
22.11.2018 16:33 2,7 C 87 % 1021,4 hPa 0,0 l/m 4,4 km/h (1 Bft) SO 144 0 min 0 W/m 0,8 C 2,7 C 11,3 km/h (2 Bft)
22.11.2018 16:36 2,7 C 87 % 1021,3 hPa 0,0 l/m 5,7 km/h (2 Bft) O 80 0 min 0 W/m 0,8 C 2,7 C 14,5 km/h (3 Bft)
22.11.2018 16:39 2,7 C 87 % 1021,3 hPa 0,0 l/m 5,7 km/h (2 Bft) O-SO 119 0 min 0 W/m 0,8 C 2,7 C 16,1 km/h (3 Bft)
22.11.2018 16:42 2,7 C 87 % 1021,3 hPa 0,0 l/m 4,1 km/h (1 Bft) O-SO 109 0 min 0 W/m 0,8 C 2,7 C 9,7 km/h (2 Bft)
22.11.2018 16:45 2,7 C 87 % 1021,3 hPa 0,0 l/m 3,6 km/h (1 Bft) SO 126 0 min 0 W/m 0,8 C 2,7 C 8,0 km/h (2 Bft)
22.11.2018 16:48 2,7 C 87 % 1021,3 hPa 0,0 l/m 5,4 km/h (2 Bft) O-NO 68 0 min 0 W/m 0,8 C 2,7 C 9,7 km/h (2 Bft)
22.11.2018 16:51 2,7 C 87 % 1021,3 hPa 0,0 l/m 4,1 km/h (1 Bft) NO 53 0 min 0 W/m 0,8 C 2,7 C 9,7 km/h (2 Bft)
22.11.2018 16:54 2,7 C 88 % 1021,3 hPa 0,0 l/m 4,6 km/h (1 Bft) SO 137 0 min 0 W/m 0,9 C 2,7 C 12,9 km/h (3 Bft)
22.11.2018 16:57 2,7 C 88 % 1021,3 hPa 0,0 l/m 4,4 km/h (1 Bft) SO 143 0 min 0 W/m 0,9 C 2,7 C 9,7 km/h (2 Bft)
22.11.2018 17:00 2,7 C 88 % 1021,3 hPa 0,0 l/m 3,8 km/h (1 Bft) O-SO 118 0 min 0 W/m 0,9 C 2,7 C 11,3 km/h (2 Bft)
22.11.2018 17:03 2,7 C 88 % 1021,3 hPa 0,0 l/m 5,3 km/h (1 Bft) NO 35 0 min 0 W/m 0,9 C 2,7 C 19,3 km/h (3 Bft)
22.11.2018 17:06 2,7 C 88 % 1021,4 hPa 0,0 l/m 3,4 km/h (1 Bft) O-NO 65 0 min 0 W/m 0,9 C 2,7 C 8,0 km/h (2 Bft)
22.11.2018 17:09 2,7 C 88 % 1021,4 hPa 0,0 l/m 5,1 km/h (1 Bft) O-SO 103 0 min 0 W/m 0,9 C 2,7 C 11,3 km/h (2 Bft)
22.11.2018 17:12 2,7 C 88 % 1021,4 hPa 0,0 l/m 5,5 km/h (2 Bft) S-SO 158 0 min 0 W/m 0,9 C 2,7 C 11,3 km/h (2 Bft)
22.11.2018 17:15 2,7 C 88 % 1021,4 hPa 0,0 l/m 5,2 km/h (1 Bft) O-NO 57 0 min 0 W/m 0,9 C 2,7 C 12,9 km/h (3 Bft)
22.11.2018 17:18 2,7 C 88 % 1021,4 hPa 0,0 l/m 4,1 km/h (1 Bft) O 83 0 min 0 W/m 0,9 C 2,7 C 12,9 km/h (3 Bft)
22.11.2018 17:21 2,7 C 88 % 1021,4 hPa 0,0 l/m 5,7 km/h (2 Bft) NO 55 0 min 0 W/m 0,9 C 2,7 C 11,3 km/h (2 Bft)
22.11.2018 17:24 2,7 C 88 % 1021,4 hPa 0,0 l/m 5,1 km/h (1 Bft) O-SO 109 0 min 0 W/m 0,9 C 2,7 C 12,9 km/h (3 Bft)
22.11.2018 17:27 2,7 C 88 % 1021,4 hPa 0,0 l/m 3,9 km/h (1 Bft) NO 41 0 min 0 W/m 0,9 C 2,7 C 11,3 km/h (2 Bft)
22.11.2018 17:30 2,7 C 88 % 1021,3 hPa 0,0 l/m 3,7 km/h (1 Bft) O-SO 111 0 min 0 W/m 0,9 C 2,7 C 9,7 km/h (2 Bft)
22.11.2018 17:33 2,7 C 88 % 1021,3 hPa 0,0 l/m 3,7 km/h (1 Bft) O 95 0 min 0 W/m 0,9 C 2,7 C 8,0 km/h (2 Bft)
22.11.2018 17:36 2,7 C 88 % 1021,3 hPa 0,0 l/m 4,4 km/h (1 Bft) O 93 0 min 0 W/m 0,9 C 2,7 C 11,3 km/h (2 Bft)
22.11.2018 17:39 2,7 C 88 % 1021,3 hPa 0,0 l/m 5,0 km/h (1 Bft) NO 34 0 min 0 W/m 0,9 C 2,7 C 11,3 km/h (2 Bft)
22.11.2018 17:42 2,7 C 88 % 1021,3 hPa 0,0 l/m 4,7 km/h (1 Bft) SO 144 0 min 0 W/m 0,9 C 2,7 C 9,7 km/h (2 Bft)
22.11.2018 17:45 2,7 C 88 % 1021,3 hPa 0,0 l/m 4,4 km/h (1 Bft) S-SO 150 0 min 0 W/m 0,9 C 2,7 C 12,9 km/h (3 Bft)
22.11.2018 17:48 2,7 C 88 % 1021,3 hPa 0,0 l/m 5,2 km/h (1 Bft) SO 140 0 min 0 W/m 0,9 C 2,7 C 12,9 km/h (3 Bft)
22.11.2018 17:51 2,7 C 88 % 1021,3 hPa 0,0 l/m 3,4 km/h (1 Bft) NO 45 0 min 0 W/m 0,9 C 2,7 C 9,7 km/h (2 Bft)
22.11.2018 17:54 2,7 C 88 % 1021,3 hPa 0,0 l/m 4,0 km/h (1 Bft) O-SO 123 0 min 0 W/m 0,9 C 2,7 C 11,3 km/h (2 Bft)
22.11.2018 17:57 2,7 C 88 % 1021,3 hPa 0,0 l/m 4,9 km/h (1 Bft) O-SO 119 0 min 0 W/m 0,9 C 2,7 C 12,9 km/h (3 Bft)
22.11.2018 18:00 2,7 C 88 % 1021,2 hPa 0,0 l/m 4,7 km/h (1 Bft) O-SO 104 0 min 0 W/m 0,9 C 2,7 C 14,5 km/h (3 Bft)
22.11.2018 18:03 2,7 C 88 % 1021,3 hPa 0,0 l/m 5,3 km/h (1 Bft) O 98 0 min 0 W/m 0,9 C 2,7 C 11,3 km/h (2 Bft)
22.11.2018 18:06 2,7 C 88 % 1021,3 hPa 0,0 l/m 4,5 km/h (1 Bft) N-NO 30 0 min 0 W/m 0,9 C 2,7 C 11,3 km/h (2 Bft)
22.11.2018 18:09 2,7 C 88 % 1021,3 hPa 0,0 l/m 5,8 km/h (2 Bft) NO 37 0 min 0 W/m 0,9 C 2,7 C 12,9 km/h (3 Bft)
22.11.2018 18:12 2,7 C 88 % 1021,2 hPa 0,0 l/m 4,2 km/h (1 Bft) O 94 0 min 0 W/m 0,9 C 2,7 C 11,3 km/h (2 Bft)
22.11.2018 18:15 2,7 C 88 % 1021,3 hPa 0,0 l/m 4,6 km/h (1 Bft) SO 126 0 min 0 W/m 0,9 C 2,7 C 12,9 km/h (3 Bft)
22.11.2018 18:18 2,7 C 88 % 1021,3 hPa 0,0 l/m 4,8 km/h (1 Bft) SO 127 0 min 0 W/m 0,9 C 2,7 C 11,3 km/h (2 Bft)
22.11.2018 18:21 2,7 C 88 % 1021,3 hPa 0,0 l/m 5,2 km/h (1 Bft) NO 35 0 min 0 W/m 0,9 C 2,7 C 17,7 km/h (3 Bft)
22.11.2018 18:24 2,7 C 88 % 1021,3 hPa 0,0 l/m 5,6 km/h (2 Bft) O 92 0 min 0 W/m 0,9 C 2,7 C 16,1 km/h (3 Bft)
22.11.2018 18:27 2,7 C 88 % 1021,3 hPa 0,0 l/m 5,8 km/h (2 Bft) NO 47 0 min 0 W/m 0,9 C 2,7 C 12,9 km/h (3 Bft)
22.11.2018 18:30 2,7 C 89 % 1021,4 hPa 0,0 l/m 5,6 km/h (2 Bft) O 83 0 min 0 W/m 1,1 C 2,7 C 16,1 km/h (3 Bft)
22.11.2018 18:33 2,7 C 89 % 1021,4 hPa 0,0 l/m 4,0 km/h (1 Bft) O-SO 109 0 min 0 W/m 1,1 C 2,7 C 9,7 km/h (2 Bft)
22.11.2018 18:36 2,7 C 89 % 1021,4 hPa 0,0 l/m 4,9 km/h (1 Bft) O-SO 113 0 min 0 W/m 1,1 C 2,7 C 11,3 km/h (2 Bft)
22.11.2018 18:39 2,7 C 89 % 1021,3 hPa 0,0 l/m 5,3 km/h (1 Bft) O-SO 111 0 min 0 W/m 1,1 C 2,7 C 12,9 km/h (3 Bft)
22.11.2018 18:42 2,7 C 89 % 1021,3 hPa 0,0 l/m 4,2 km/h (1 Bft) O-SO 117 0 min 0 W/m 1,1 C 2,7 C 17,7 km/h (3 Bft)
22.11.2018 18:45 2,7 C 89 % 1021,3 hPa 0,0 l/m 4,5 km/h (1 Bft) O 84 0 min 0 W/m 1,1 C 2,7 C 9,7 km/h (2 Bft)
22.11.2018 18:48 2,7 C 89 % 1021,3 hPa 0,0 l/m 5,7 km/h (2 Bft) O 101 0 min 0 W/m 1,1 C 2,7 C 11,3 km/h (2 Bft)
22.11.2018 18:51 2,7 C 89 % 1021,3 hPa 0,0 l/m 4,8 km/h (1 Bft) O 84 0 min 0 W/m 1,1 C 2,7 C 12,9 km/h (3 Bft)
22.11.2018 18:54 2,7 C 89 % 1021,3 hPa 0,0 l/m 4,0 km/h (1 Bft) O-NO 72 0 min 0 W/m 1,1 C 2,7 C 11,3 km/h (2 Bft)
22.11.2018 18:57 2,7 C 89 % 1021,3 hPa 0,0 l/m 3,8 km/h (1 Bft) NW 325 0 min 0 W/m 1,1 C 2,7 C 11,3 km/h (2 Bft)
22.11.2018 19:00 2,7 C 89 % 1021,3 hPa 0,0 l/m 5,5 km/h (2 Bft) O 99 0 min 0 W/m 1,1 C 2,7 C 9,7 km/h (2 Bft)
22.11.2018 19:03 2,7 C 89 % 1021,3 hPa 0,0 l/m 5,6 km/h (2 Bft) O-SO 120 0 min 0 W/m 1,1 C 2,7 C 14,5 km/h (3 Bft)
22.11.2018 19:06 2,7 C 89 % 1021,3 hPa 0,0 l/m 4,5 km/h (1 Bft) O 82 0 min 0 W/m 1,1 C 2,7 C 11,3 km/h (2 Bft)
22.11.2018 19:09 2,7 C 89 % 1021,3 hPa 0,0 l/m 4,7 km/h (1 Bft) NO 36 0 min 0 W/m 1,1 C 2,7 C 9,7 km/h (2 Bft)
22.11.2018 19:12 2,7 C 89 % 1021,3 hPa 0,0 l/m 5,9 km/h (2 Bft) O-SO 102 0 min 0 W/m 1,1 C 2,7 C 12,9 km/h (3 Bft)
22.11.2018 19:15 2,7 C 89 % 1021,4 hPa 0,0 l/m 7,6 km/h (2 Bft) NO 39 0 min 0 W/m 1,1 C 1,6 C 16,1 km/h (3 Bft)
22.11.2018 19:18 2,7 C 89 % 1021,4 hPa 0,0 l/m 6,1 km/h (2 Bft) O-SO 106 0 min 0 W/m 1,1 C 2,7 C 14,5 km/h (3 Bft)
22.11.2018 19:21 2,7 C 89 % 1021,4 hPa 0,0 l/m 6,6 km/h (2 Bft) SO 128 0 min 0 W/m 1,1 C 2,5 C 11,3 km/h (2 Bft)
22.11.2018 19:24 2,7 C 89 % 1021,4 hPa 0,0 l/m 3,9 km/h (1 Bft) O-NO 64 0 min 0 W/m 1,1 C 2,7 C 12,9 km/h (3 Bft)
22.11.2018 19:27 2,7 C 89 % 1021,3 hPa 0,0 l/m 5,7 km/h (2 Bft) O-SO 123 0 min 0 W/m 1,1 C 2,7 C 12,9 km/h (3 Bft)
22.11.2018 19:30 2,7 C 89 % 1021,4 hPa 0,0 l/m 4,8 km/h (1 Bft) NO 46 0 min 0 W/m 1,1 C 2,7 C 11,3 km/h (2 Bft)
22.11.2018 19:33 2,7 C 89 % 1021,4 hPa 0,0 l/m 3,9 km/h (1 Bft) O 96 0 min 0 W/m 1,1 C 2,7 C 16,1 km/h (3 Bft)
22.11.2018 19:36 2,7 C 89 % 1021,4 hPa 0,0 l/m 4,8 km/h (1 Bft) O-NO 76 0 min 0 W/m 1,1 C 2,7 C 12,9 km/h (3 Bft)
22.11.2018 19:39 2,7 C 89 % 1021,4 hPa 0,0 l/m 5,4 km/h (2 Bft) NO 46 0 min 0 W/m 1,1 C 2,7 C 12,9 km/h (3 Bft)
22.11.2018 19:42 2,7 C 89 % 1021,4 hPa 0,0 l/m 7,2 km/h (2 Bft) SO 128 0 min 0 W/m 1,1 C 1,9 C 16,1 km/h (3 Bft)
22.11.2018 19:45 2,7 C 89 % 1021,4 hPa 0,0 l/m 3,6 km/h (1 Bft) S-SO 161 0 min 0 W/m 1,1 C 2,7 C 8,0 km/h (2 Bft)
22.11.2018 19:48 2,7 C 89 % 1021,4 hPa 0,0 l/m 3,3 km/h (1 Bft) O-SO 105 0 min 0 W/m 1,1 C 2,7 C 9,7 km/h (2 Bft)
22.11.2018 19:51 2,7 C 89 % 1021,4 hPa 0,0 l/m 3,4 km/h (1 Bft) O 98 0 min 0 W/m 1,1 C 2,7 C 6,4 km/h (2 Bft)
22.11.2018 19:54 2,7 C 89 % 1021,4 hPa 0,0 l/m 4,4 km/h (1 Bft) O-SO 121 0 min 0 W/m 1,1 C 2,7 C 11,3 km/h (2 Bft)
22.11.2018 19:57 2,7 C 89 % 1021,4 hPa 0,0 l/m 6,2 km/h (2 Bft) O-NO 57 0 min 0 W/m 1,1 C 2,7 C 17,7 km/h (3 Bft)
22.11.2018 20:00 2,7 C 89 % 1021,4 hPa 0,0 l/m 5,0 km/h (1 Bft) SO 137 0 min 0 W/m 1,1 C 2,7 C 12,9 km/h (3 Bft)
22.11.2018 20:03 2,7 C 89 % 1021,4 hPa 0,0 l/m 5,0 km/h (1 Bft) O-SO 103 0 min 0 W/m 1,1 C 2,7 C 16,1 km/h (3 Bft)
22.11.2018 20:06 2,7 C 89 % 1021,4 hPa 0,0 l/m 7,0 km/h (2 Bft) SO 134 0 min 0 W/m 1,1 C 2,1 C 17,7 km/h (3 Bft)
22.11.2018 20:09 2,7 C 89 % 1021,4 hPa 0,0 l/m 5,6 km/h (2 Bft) O 94 0 min 0 W/m 1,1 C 2,7 C 14,5 km/h (3 Bft)
22.11.2018 20:12 2,7 C 89 % 1021,4 hPa 0,0 l/m 5,2 km/h (1 Bft) S-SO 149 0 min 0 W/m 1,1 C 2,7 C 14,5 km/h (3 Bft)
22.11.2018 20:15 2,7 C 89 % 1021,4 hPa 0,0 l/m 6,3 km/h (2 Bft) O-SO 112 0 min 0 W/m 1,1 C 2,7 C 12,9 km/h (3 Bft)
22.11.2018 20:18 2,7 C 89 % 1021,3 hPa 0,0 l/m 4,5 km/h (1 Bft) S 172 0 min 0 W/m 1,1 C 2,7 C 11,3 km/h (2 Bft)
22.11.2018 20:21 2,7 C 89 % 1021,3 hPa 0,0 l/m 5,2 km/h (1 Bft) O-SO 119 0 min 0 W/m 1,1 C 2,7 C 16,1 km/h (3 Bft)
22.11.2018 20:24 2,7 C 89 % 1021,3 hPa 0,0 l/m 8,2 km/h (2 Bft) SO 127 0 min 0 W/m 1,1 C 1,0 C 17,7 km/h (3 Bft)
22.11.2018 20:27 2,7 C 89 % 1021,4 hPa 0,0 l/m 5,6 km/h (2 Bft) O-SO 113 0 min 0 W/m 1,1 C 2,7 C 14,5 km/h (3 Bft)
22.11.2018 20:30 2,6 C 89 % 1021,3 hPa 0,0 l/m 6,5 km/h (2 Bft) O-NO 77 0 min 0 W/m 1,0 C 2,5 C 16,1 km/h (3 Bft)
22.11.2018 20:33 2,7 C 89 % 1021,4 hPa 0,0 l/m 7,0 km/h (2 Bft) SO 135 0 min 0 W/m 1,1 C 2,1 C 16,1 km/h (3 Bft)
22.11.2018 20:36 2,6 C 89 % 1021,4 hPa 0,0 l/m 6,6 km/h (2 Bft) SO 137 0 min 0 W/m 1,0 C 2,4 C 14,5 km/h (3 Bft)
22.11.2018 20:39 2,6 C 89 % 1021,4 hPa 0,0 l/m 5,9 km/h (2 Bft) O-SO 109 0 min 0 W/m 1,0 C 2,6 C 12,9 km/h (3 Bft)
22.11.2018 20:42 2,6 C 89 % 1021,3 hPa 0,0 l/m 4,7 km/h (1 Bft) O-NO 78 0 min 0 W/m 1,0 C 2,6 C 19,3 km/h (3 Bft)
22.11.2018 20:45 2,6 C 89 % 1021,3 hPa 0,0 l/m 5,1 km/h (1 Bft) NO 42 0 min 0 W/m 1,0 C 2,6 C 16,1 km/h (3 Bft)
22.11.2018 20:48 2,6 C 89 % 1021,3 hPa 0,0 l/m 5,4 km/h (2 Bft) O 96 0 min 0 W/m 1,0 C 2,6 C 17,7 km/h (3 Bft)
22.11.2018 20:51 2,6 C 89 % 1021,3 hPa 0,0 l/m 4,3 km/h (1 Bft) SO 137 0 min 0 W/m 1,0 C 2,6 C 12,9 km/h (3 Bft)
22.11.2018 20:54 2,6 C 89 % 1021,3 hPa 0,0 l/m 4,3 km/h (1 Bft) SO 134 0 min 0 W/m 1,0 C 2,6 C 12,9 km/h (3 Bft)
22.11.2018 20:57 2,6 C 89 % 1021,3 hPa 0,0 l/m 4,7 km/h (1 Bft) O 85 0 min 0 W/m 1,0 C 2,6 C 11,3 km/h (2 Bft)
22.11.2018 21:00 2,6 C 89 % 1021,2 hPa 0,0 l/m 4,4 km/h (1 Bft) S-SO 147 0 min 0 W/m 1,0 C 2,6 C 9,7 km/h (2 Bft)
22.11.2018 21:03 2,6 C 89 % 1021,2 hPa 0,0 l/m 3,0 km/h (1 Bft) SO 128 0 min 0 W/m 1,0 C 2,6 C 14,5 km/h (3 Bft)
22.11.2018 21:06 2,6 C 89 % 1021,2 hPa 0,0 l/m 5,6 km/h (2 Bft) O-SO 117 0 min 0 W/m 1,0 C 2,6 C 12,9 km/h (3 Bft)
22.11.2018 21:09 2,6 C 89 % 1021,3 hPa 0,0 l/m 5,8 km/h (2 Bft) O 96 0 min 0 W/m 1,0 C 2,6 C 12,9 km/h (3 Bft)
22.11.2018 21:12 2,6 C 89 % 1021,3 hPa 0,0 l/m 5,3 km/h (1 Bft) O 99 0 min 0 W/m 1,0 C 2,6 C 11,3 km/h (2 Bft)
22.11.2018 21:15 2,6 C 89 % 1021,3 hPa 0,0 l/m 5,9 km/h (2 Bft) SO 125 0 min 0 W/m 1,0 C 2,6 C 12,9 km/h (3 Bft)
22.11.2018 21:18 2,6 C 89 % 1021,4 hPa 0,0 l/m 5,5 km/h (2 Bft) O-SO 116 0 min 0 W/m 1,0 C 2,6 C 12,9 km/h (3 Bft)
22.11.2018 21:21 2,6 C 89 % 1021,4 hPa 0,0 l/m 4,9 km/h (1 Bft) O-SO 113 0 min 0 W/m 1,0 C 2,6 C 12,9 km/h (3 Bft)
22.11.2018 21:24 2,6 C 89 % 1021,4 hPa 0,0 l/m 5,0 km/h (1 Bft) N-NO 30 0 min 0 W/m 1,0 C 2,6 C 12,9 km/h (3 Bft)
22.11.2018 21:27 2,6 C 89 % 1021,4 hPa 0,0 l/m 3,3 km/h (1 Bft) O 89 0 min 0 W/m 1,0 C 2,6 C 8,0 km/h (2 Bft)
22.11.2018 21:30 2,6 C 89 % 1021,4 hPa 0,0 l/m 3,3 km/h (1 Bft) O-SO 108 0 min 0 W/m 1,0 C 2,6 C 9,7 km/h (2 Bft)
22.11.2018 21:33 2,6 C 89 % 1021,4 hPa 0,0 l/m 5,2 km/h (1 Bft) O-SO 119 0 min 0 W/m 1,0 C 2,6 C 14,5 km/h (3 Bft)
22.11.2018 21:36 2,6 C 89 % 1021,5 hPa 0,0 l/m 6,2 km/h (2 Bft) O-SO 121 0 min 0 W/m 1,0 C 2,6 C 14,5 km/h (3 Bft)
22.11.2018 21:39 2,6 C 89 % 1021,4 hPa 0,0 l/m 6,1 km/h (2 Bft) SO 134 0 min 0 W/m 1,0 C 2,6 C 16,1 km/h (3 Bft)
22.11.2018 21:42 2,6 C 89 % 1021,5 hPa 0,0 l/m 5,2 km/h (1 Bft) O 97 0 min 0 W/m 1,0 C 2,6 C 14,5 km/h (3 Bft)
22.11.2018 21:45 2,6 C 89 % 1021,4 hPa 0,0 l/m 4,7 km/h (1 Bft) O-SO 113 0 min 0 W/m 1,0 C 2,6 C 11,3 km/h (2 Bft)
22.11.2018 21:48 2,6 C 89 % 1021,5 hPa 0,0 l/m 3,8 km/h (1 Bft) NO 51 0 min 0 W/m 1,0 C 2,6 C 9,7 km/h (2 Bft)
22.11.2018 21:51 2,7 C 89 % 1021,5 hPa 0,0 l/m 5,5 km/h (2 Bft) N-NO 17 0 min 0 W/m 1,1 C 2,7 C 14,5 km/h (3 Bft)
22.11.2018 21:54 2,7 C 90 % 1021,5 hPa 0,0 l/m 4,1 km/h (1 Bft) O 81 0 min 0 W/m 1,2 C 2,7 C 8,0 km/h (2 Bft)
22.11.2018 21:57 2,7 C 90 % 1021,5 hPa 0,0 l/m 5,5 km/h (2 Bft) NO 34 0 min 0 W/m 1,2 C 2,7 C 12,9 km/h (3 Bft)
22.11.2018 22:00 2,7 C 90 % 1021,4 hPa 0,0 l/m 5,4 km/h (2 Bft) O 88 0 min 0 W/m 1,2 C 2,7 C 12,9 km/h (3 Bft)
22.11.2018 22:03 2,7 C 90 % 1021,4 hPa 0,0 l/m 5,2 km/h (1 Bft) O-SO 105 0 min 0 W/m 1,2 C 2,7 C 11,3 km/h (2 Bft)
22.11.2018 22:06 2,7 C 90 % 1021,4 hPa 0,0 l/m 7,0 km/h (2 Bft) O-SO 116 0 min 0 W/m 1,2 C 2,1 C 14,5 km/h (3 Bft)
22.11.2018 22:09 2,7 C 90 % 1021,4 hPa 0,0 l/m 4,7 km/h (1 Bft) NO 51 0 min 0 W/m 1,2 C 2,7 C 9,7 km/h (2 Bft)
22.11.2018 22:12 2,7 C 90 % 1021,3 hPa 0,0 l/m 4,6 km/h (1 Bft) SO 142 0 min 0 W/m 1,2 C 2,7 C 8,0 km/h (2 Bft)
22.11.2018 22:15 2,7 C 90 % 1021,4 hPa 0,0 l/m 6,3 km/h (2 Bft) O-SO 119 0 min 0 W/m 1,2 C 2,7 C 16,1 km/h (3 Bft)
22.11.2018 22:18 2,7 C 90 % 1021,4 hPa 0,0 l/m 7,3 km/h (2 Bft) O 89 0 min 0 W/m 1,2 C 1,8 C 14,5 km/h (3 Bft)
22.11.2018 22:21 2,7 C 90 % 1021,3 hPa 0,0 l/m 7,2 km/h (2 Bft) O-SO 111 0 min 0 W/m 1,2 C 1,9 C 16,1 km/h (3 Bft)
22.11.2018 22:24 2,7 C 90 % 1021,4 hPa 0,0 l/m 6,3 km/h (2 Bft) N-NO 19 0 min 0 W/m 1,2 C 2,7 C 14,5 km/h (3 Bft)
22.11.2018 22:27 2,7 C 90 % 1021,3 hPa 0,0 l/m 6,1 km/h (2 Bft) O 80 0 min 0 W/m 1,2 C 2,7 C 14,5 km/h (3 Bft)
22.11.2018 22:30 2,7 C 90 % 1021,4 hPa 0,0 l/m 5,1 km/h (1 Bft) S-SO 161 0 min 0 W/m 1,2 C 2,7 C 9,7 km/h (2 Bft)
22.11.2018 22:33 2,7 C 90 % 1021,3 hPa 0,0 l/m 4,2 km/h (1 Bft) O-SO 113 0 min 0 W/m 1,2 C 2,7 C 11,3 km/h (2 Bft)
22.11.2018 22:36 2,7 C 90 % 1021,4 hPa 0,0 l/m 4,2 km/h (1 Bft) O 80 0 min 0 W/m 1,2 C 2,7 C 14,5 km/h (3 Bft)
22.11.2018 22:39 2,7 C 90 % 1021,3 hPa 0,0 l/m 3,9 km/h (1 Bft) O-NO 63 0 min 0 W/m 1,2 C 2,7 C 8,0 km/h (2 Bft)
22.11.2018 22:42 2,7 C 90 % 1021,3 hPa 0,0 l/m 2,8 km/h (1 Bft) O-NO 59 0 min 0 W/m 1,2 C 2,7 C 4,8 km/h (1 Bft)
22.11.2018 22:45 2,7 C 90 % 1021,3 hPa 0,0 l/m 5,0 km/h (1 Bft) O-NO 73 0 min 0 W/m 1,2 C 2,7 C 14,5 km/h (3 Bft)
22.11.2018 22:48 2,7 C 90 % 1021,4 hPa 0,0 l/m 4,7 km/h (1 Bft) SO 138 0 min 0 W/m 1,2 C 2,7 C 9,7 km/h (2 Bft)
22.11.2018 22:51 2,7 C 90 % 1021,3 hPa 0,0 l/m 4,9 km/h (1 Bft) SO 127 0 min 0 W/m 1,2 C 2,7 C 11,3 km/h (2 Bft)
22.11.2018 22:54 2,7 C 90 % 1021,4 hPa 0,0 l/m 6,3 km/h (2 Bft) O 92 0 min 0 W/m 1,2 C 2,7 C 17,7 km/h (3 Bft)
22.11.2018 22:57 2,6 C 90 % 1021,3 hPa 0,0 l/m 4,4 km/h (1 Bft) SO 128 0 min 0 W/m 1,1 C 2,6 C 12,9 km/h (3 Bft)
22.11.2018 23:00 2,6 C 90 % 1021,4 hPa 0,0 l/m 3,0 km/h (1 Bft) SO 126 0 min 0 W/m 1,1 C 2,6 C 9,7 km/h (2 Bft)
22.11.2018 23:03 2,6 C 90 % 1021,4 hPa 0,0 l/m 3,6 km/h (1 Bft) O-SO 104 0 min 0 W/m 1,1 C 2,6 C 9,7 km/h (2 Bft)
22.11.2018 23:06 2,6 C 90 % 1021,3 hPa 0,0 l/m 5,3 km/h (1 Bft) O-SO 107 0 min 0 W/m 1,1 C 2,6 C 11,3 km/h (2 Bft)
22.11.2018 23:09 2,6 C 90 % 1021,3 hPa 0,0 l/m 4,9 km/h (1 Bft) O 93 0 min 0 W/m 1,1 C 2,6 C 11,3 km/h (2 Bft)
22.11.2018 23:12 2,6 C 90 % 1021,3 hPa 0,0 l/m 5,1 km/h (1 Bft) NO 37 0 min 0 W/m 1,1 C 2,6 C 12,9 km/h (3 Bft)
22.11.2018 23:15 2,6 C 90 % 1021,3 hPa 0,0 l/m 5,0 km/h (1 Bft) S-SO 152 0 min 0 W/m 1,1 C 2,6 C 11,3 km/h (2 Bft)
22.11.2018 23:18 2,6 C 90 % 1021,3 hPa 0,0 l/m 3,1 km/h (1 Bft) O 98 0 min 0 W/m 1,1 C 2,6 C 8,0 km/h (2 Bft)
22.11.2018 23:21 2,6 C 90 % 1021,3 hPa 0,0 l/m 3,9 km/h (1 Bft) O-SO 122 0 min 0 W/m 1,1 C 2,6 C 11,3 km/h (2 Bft)
22.11.2018 23:24 2,6 C 90 % 1021,3 hPa 0,0 l/m 4,2 km/h (1 Bft) O 100 0 min 0 W/m 1,1 C 2,6 C 11,3 km/h (2 Bft)
22.11.2018 23:27 2,6 C 90 % 1021,2 hPa 0,0 l/m 3,4 km/h (1 Bft) O 100 0 min 0 W/m 1,1 C 2,6 C 6,4 km/h (2 Bft)
22.11.2018 23:30 2,6 C 90 % 1021,2 hPa 0,0 l/m 3,8 km/h (1 Bft) S 169 0 min 0 W/m 1,1 C 2,6 C 14,5 km/h (3 Bft)
22.11.2018 23:33 2,6 C 90 % 1021,2 hPa 0,0 l/m 3,9 km/h (1 Bft) O 79 0 min 0 W/m 1,1 C 2,6 C 8,0 km/h (2 Bft)
22.11.2018 23:36 2,6 C 90 % 1021,2 hPa 0,0 l/m 3,6 km/h (1 Bft) SO 131 0 min 0 W/m 1,1 C 2,6 C 8,0 km/h (2 Bft)
22.11.2018 23:39 2,6 C 90 % 1021,2 hPa 0,0 l/m 3,2 km/h (1 Bft) SO 132 0 min 0 W/m 1,1 C 2,6 C 4,8 km/h (1 Bft)
22.11.2018 23:42 2,6 C 91 % 1021,1 hPa 0,0 l/m 5,2 km/h (1 Bft) O 99 0 min 0 W/m 1,3 C 2,6 C 12,9 km/h (3 Bft)
22.11.2018 23:45 2,5 C 91 % 1021,2 hPa 0,0 l/m 3,9 km/h (1 Bft) O-SO 104 0 min 0 W/m 1,2 C 2,5 C 9,7 km/h (2 Bft)
22.11.2018 23:48 2,6 C 91 % 1021,2 hPa 0,0 l/m 4,6 km/h (1 Bft) O-SO 102 0 min 0 W/m 1,3 C 2,6 C 9,7 km/h (2 Bft)
22.11.2018 23:51 2,5 C 91 % 1021,2 hPa 0,0 l/m 4,5 km/h (1 Bft) SO 124 0 min 0 W/m 1,2 C 2,5 C 11,3 km/h (2 Bft)
22.11.2018 23:54 2,5 C 91 % 1021,2 hPa 0,0 l/m 4,2 km/h (1 Bft) S-SO 164 0 min 0 W/m 1,2 C 2,5 C 12,9 km/h (3 Bft)
22.11.2018 23:57 2,5 C 91 % 1021,2 hPa 0,0 l/m 4,5 km/h (1 Bft) O 83 0 min 0 W/m 1,2 C 2,5 C 9,7 km/h (2 Bft)
_ Min-Zeit 05:24 13:30 23:42 - 07:36 - - - - 01:54 01:30 07:36
Minimum _ 1,8 C 86 % 1021,1 hPa - 2,6 km/h (1 Bft) - - - - 0,1 C -1,1 C 4,8 km/h (1 Bft)
_ Max-Zeit 12:21 09:24 00:00 00:00 01:30 - - 00:00 12:18 23:42 14:51 00:30
Maximum _ 3,0 C 91 % 1022,9 hPa 0,0 l/m 9,8 km/h
O-SO (2 Bft)
- - 0 min 146 W/m 1,3 C 2,9 C 25,7 km/h
O-NO (4 Bft)
Durchschnitt _ 2,4 C 89 % 1022,0 hPa #0,0 l/m 5,8 km/h (2 Bft) O - #0 min. 36 W/m 0,7 C 2,1 C 14,4 km/h (3 Bft)
2018 Cux-Wetter.de -Die Nutzung der Wetterdaten nur mit ausdrcklicher Genehmigung